Observation data for South Plains 3ENE on 06/25/2019      Previous  Date  Next       Current Mesonet Observations  Soil Data  Daily Summary Page  Observations in Plain Language
KSP2 250500Z 10008KT 20/18 A2998 RMK A01 T02030175  RH  084%=      5-min Rain = 0
KSP2 250501Z 10009KT 20/18 A2998 RMK A01 T02030176  RH  084%=      5-min Rain = 0
KSP2 250502Z 10008KT 20/18 A2998 RMK A01 T02030176  RH  085%=      5-min Rain = 0
KSP2 250503Z 10009KT 20/18 A2998 RMK A01 T02020176  RH  085%=      5-min Rain = 0
KSP2 250504Z 10009KT 20/18 A2998 RMK A01 T02020176  RH  085%=      5-min Rain = 0
KSP2 250505Z 11009KT 20/18 A2998 RMK A01 T02020176  RH  085%=      5-min Rain = 0
KSP2 250506Z 11010KT 20/18 A2998 RMK A01 T02020177  RH  086%=      5-min Rain = 0
KSP2 250507Z 11010KT 20/18 A2998 RMK A01 T02020178  RH  086%=      5-min Rain = 0
KSP2 250508Z 11011KT 20/18 A2998 RMK A01 T02030179  RH  086%=      5-min Rain = 0
KSP2 250509Z 11011KT 20/18 A2999 RMK A01 T02040180  RH  086%=      5-min Rain = 0
KSP2 250510Z 11012KT 21/18 A2999 RMK A01 T02050180  RH  086%=      5-min Rain = 0
KSP2 250511Z 11010KT 21/18 A2999 RMK A01 T02060180  RH  085%=      5-min Rain = 0
KSP2 250512Z 11011KT 21/18 A2999 RMK A01 T02060181  RH  085%=      5-min Rain = 0
KSP2 250513Z 11011KT 21/18 A2999 RMK A01 T02060180  RH  085%=      5-min Rain = 0
KSP2 250514Z 12012KT 21/18 A2999 RMK A01 T02060180  RH  085%=      5-min Rain = 0
KSP2 250515Z 12011KT 21/18 A2999 RMK A01 T02060180  RH  085%=      5-min Rain = 0
KSP2 250516Z 12011KT 21/18 A2999 RMK A01 T02060180  RH  085%=      5-min Rain = 0
KSP2 250517Z 11010KT 21/18 A2999 RMK A01 T02060180  RH  085%=      5-min Rain = 0
KSP2 250518Z 12010KT 21/18 A2999 RMK A01 T02060180  RH  085%=      5-min Rain = 0
KSP2 250519Z 12010KT 21/18 A2999 RMK A01 T02060180  RH  085%=      5-min Rain = 0
KSP2 250520Z 11011KT 21/18 A2999 RMK A01 T02060180  RH  085%=      5-min Rain = 0
KSP2 250521Z 11010KT 21/18 A2999 RMK A01 T02060181  RH  085%=      5-min Rain = 0
KSP2 250522Z 11010KT 21/18 A2999 RMK A01 T02070181  RH  085%=      5-min Rain = 0
KSP2 250523Z 11010KT 21/18 A2999 RMK A01 T02060181  RH  085%=      5-min Rain = 0
KSP2 250524Z 11009KT 21/18 A2999 RMK A01 T02060181  RH  085%=      5-min Rain = 0
KSP2 250525Z 11010KT 21/18 A2999 RMK A01 T02060182  RH  086%=      5-min Rain = 0
KSP2 250526Z 11010KT 21/18 A2998 RMK A01 T02050181  RH  086%=      5-min Rain = 0
KSP2 250527Z 11010KT 21/18 A2998 RMK A01 T02050182  RH  086%=      5-min Rain = 0
KSP2 250528Z 11010KT 21/18 A2998 RMK A01 T02050182  RH  087%=      5-min Rain = 0
KSP2 250529Z 11010KT 21/18 A2998 RMK A01 T02050182  RH  087%=      5-min Rain = 0
KSP2 250530Z 10009KT 21/18 A2999 RMK A01 T02050182  RH  086%=      5-min Rain = 0
KSP2 250531Z 11009KT 21/18 A2999 RMK A01 T02050182  RH  087%=      5-min Rain = 0
KSP2 250532Z 11007KT 20/18 A2998 RMK A01 T02040182  RH  087%=      5-min Rain = 0
KSP2 250533Z 11006KT 20/18 A2998 RMK A01 T02030182  RH  087%=      5-min Rain = 0
KSP2 250534Z 11007KT 20/18 A2998 RMK A01 T02030182  RH  088%=      5-min Rain = 0
KSP2 250535Z 12008KT 20/18 A2998 RMK A01 T02020182  RH  088%=      5-min Rain = 0
KSP2 250536Z 12007KT 20/18 A2998 RMK A01 T02020183  RH  089%=      5-min Rain = 0
KSP2 250537Z 12008KT 20/18 A2998 RMK A01 T02020183  RH  089%=      5-min Rain = 0
KSP2 250538Z 11008KT 20/18 A2998 RMK A01 T02010183  RH  089%=      5-min Rain = 0
KSP2 250539Z 12008KT 20/18 A2998 RMK A01 T02020184  RH  089%=      5-min Rain = 0
KSP2 250540Z 12008KT 20/18 A2999 RMK A01 T02010183  RH  089%=      5-min Rain = 0
KSP2 250541Z 12007KT 20/18 A2999 RMK A01 T02020184  RH  089%=      5-min Rain = 0
KSP2 250542Z 12008KT 20/18 A2999 RMK A01 T02010184  RH  090%=      5-min Rain = 0
KSP2 250543Z 12008KT 20/18 A2999 RMK A01 T02010184  RH  090%=      5-min Rain = 0
KSP2 250544Z 12008KT 20/18 A2999 RMK A01 T02010184  RH  090%=      5-min Rain = 0
KSP2 250545Z 12007KT 20/18 A2998 RMK A01 T02010184  RH  090%=      5-min Rain = 0
KSP2 250546Z 12008KT 20/18 A2998 RMK A01 T02010184  RH  090%=      5-min Rain = 0
KSP2 250547Z 12007KT 20/19 A2998 RMK A01 T02010185  RH  090%=      5-min Rain = 0
KSP2 250548Z 12007KT 20/18 A2998 RMK A01 T02010184  RH  090%=      5-min Rain = 0
KSP2 250549Z 12007KT 20/19 A2998 RMK A01 T02000185  RH  091%=      5-min Rain = 0
KSP2 250550Z 13007KT 20/19 A2998 RMK A01 T02000185  RH  091%=      5-min Rain = 0
KSP2 250551Z 13007KT 20/19 A2998 RMK A01 T02000185  RH  091%=      5-min Rain = 0
KSP2 250552Z 13007KT 20/19 A2998 RMK A01 T02000185  RH  091%=      5-min Rain = 0
KSP2 250553Z 13007KT 20/19 A2998 RMK A01 T02000185  RH  091%=      5-min Rain = 0
KSP2 250554Z 12006KT 20/19 A2998 RMK A01 T02000185  RH  091%=      5-min Rain = 0
KSP2 250555Z 12006KT 20/19 A2998 RMK A01 T01990185  RH  091%=      5-min Rain = 0
KSP2 250556Z 12006KT 20/19 A2998 RMK A01 T01990185  RH  092%=      5-min Rain = 0
KSP2 250557Z 12007KT 20/19 A2998 RMK A01 T01980185  RH  092%=      5-min Rain = 0
KSP2 250558Z 13006KT 20/19 A2998 RMK A01 T01980185  RH  092%=      5-min Rain = 0
KSP2 250559Z 13006KT 20/19 A2998 RMK A01 T01980186  RH  093%=      5-min Rain = 0
KSP2 250600Z 13005KT 20/19 A2998 RMK A01 T01980186  RH  093%=      5-min Rain = 0
KSP2 250601Z 13006KT 20/19 A2998 RMK A01 T01980186  RH  093%=      5-min Rain = 0
KSP2 250602Z 13006KT 20/19 A2998 RMK A01 T01980185  RH  093%=      5-min Rain = 0
KSP2 250603Z 12007KT 20/19 A2998 RMK A01 T01970185  RH  093%=      5-min Rain = 0
KSP2 250604Z 12007KT 20/19 A2998 RMK A01 T01970185  RH  093%=      5-min Rain = 0
KSP2 250605Z 12007KT 20/19 A2998 RMK A01 T01960185  RH  094%=      5-min Rain = 0
KSP2 250606Z 12006KT 20/19 A2998 RMK A01 T01960186  RH  094%=      5-min Rain = 0
KSP2 250607Z 13006KT 20/19 A2998 RMK A01 T01960186  RH  094%=      5-min Rain = 0
KSP2 250608Z 13006KT 20/19 A2998 RMK A01 T01970187  RH  094%=      5-min Rain = 0
KSP2 250609Z 12006KT 20/19 A2998 RMK A01 T01970188  RH  094%=      5-min Rain = 0
KSP2 250610Z 12007KT 20/19 A2998 RMK A01 T01980188  RH  094%=      5-min Rain = 0
KSP2 250611Z 12006KT 20/19 A2998 RMK A01 T01980188  RH  094%=      5-min Rain = 0
KSP2 250612Z 13006KT 20/19 A2998 RMK A01 T01980188  RH  094%=      5-min Rain = 0
KSP2 250613Z 13006KT 20/19 A2998 RMK A01 T01990188  RH  094%=      5-min Rain = 0
KSP2 250614Z 13006KT 20/19 A2998 RMK A01 T01980188  RH  094%=      5-min Rain = 0
KSP2 250615Z 13006KT 20/19 A2998 RMK A01 T01980188  RH  093%=      5-min Rain = 0
KSP2 250616Z 14006KT 20/19 A2998 RMK A01 T01990188  RH  094%=      5-min Rain = 0
KSP2 250617Z 15006KT 20/19 A2997 RMK A01 T01990188  RH  094%=      5-min Rain = 0
KSP2 250618Z 15006KT 20/19 A2997 RMK A01 T01990188  RH  094%=      5-min Rain = 0
KSP2 250619Z 15006KT 20/19 A2997 RMK A01 T01990188  RH  094%=      5-min Rain = 0
KSP2 250620Z 15006KT 20/19 A2997 RMK A01 T01980188  RH  093%=      5-min Rain = 0
KSP2 250621Z 15006KT 20/19 A2997 RMK A01 T01990188  RH  094%=      5-min Rain = 0
KSP2 250622Z 15006KT 20/19 A2997 RMK A01 T01990188  RH  094%=      5-min Rain = 0
KSP2 250623Z 15005KT 20/19 A2997 RMK A01 T01980188  RH  094%=      5-min Rain = 0
KSP2 250624Z 15006KT 20/19 A2997 RMK A01 T01980188  RH  094%=      5-min Rain = 0
KSP2 250625Z 15006KT 20/19 A2997 RMK A01 T01980188  RH  094%=      5-min Rain = 0
KSP2 250626Z 15006KT 20/19 A2997 RMK A01 T01980188  RH  094%=      5-min Rain = 0
KSP2 250627Z 14006KT 20/19 A2997 RMK A01 T01980187  RH  094%=      5-min Rain = 0
KSP2 250628Z 14005KT 20/19 A2997 RMK A01 T01970187  RH  094%=      5-min Rain = 0
KSP2 250629Z 14005KT 20/19 A2997 RMK A01 T01970187  RH  094%=      5-min Rain = 0
KSP2 250630Z 14005KT 20/19 A2997 RMK A01 T01970187  RH  094%=      5-min Rain = 0
KSP2 250631Z 14004KT 20/19 A2997 RMK A01 T01970187  RH  094%=      5-min Rain = 0
KSP2 250632Z 14004KT 20/19 A2997 RMK A01 T01960186  RH  094%=      5-min Rain = 0
KSP2 250633Z 14005KT 20/19 A2997 RMK A01 T01960186  RH  094%=      5-min Rain = 0
KSP2 250634Z 14005KT 20/19 A2997 RMK A01 T01960186  RH  094%=      5-min Rain = 0
KSP2 250635Z 14005KT 20/19 A2997 RMK A01 T01950185  RH  094%=      5-min Rain = 0
KSP2 250636Z 14005KT 20/19 A2997 RMK A01 T01950185  RH  094%=      5-min Rain = 0
KSP2 250637Z 13005KT 19/19 A2997 RMK A01 T01940185  RH  094%=      5-min Rain = 0
KSP2 250638Z 13005KT 19/19 A2997 RMK A01 T01940185  RH  094%=      5-min Rain = 0
KSP2 250639Z 13004KT 19/18 A2997 RMK A01 T01930184  RH  095%=      5-min Rain = 0
KSP2 250640Z 13004KT 19/18 A2997 RMK A01 T01930184  RH  095%=      5-min Rain = 0
KSP2 250641Z 14004KT 19/18 A2997 RMK A01 T01930184  RH  095%=      5-min Rain = 0
KSP2 250642Z 14003KT 19/18 A2997 RMK A01 T01920184  RH  095%=      5-min Rain = 0
KSP2 250643Z 14003KT 19/18 A2997 RMK A01 T01920184  RH  095%=      5-min Rain = 0
KSP2 250644Z 14002KT 19/18 A2997 RMK A01 T01910183  RH  095%=      5-min Rain = 0
KSP2 250645Z 13002KT 19/18 A2997 RMK A01 T01910183  RH  095%=      5-min Rain = 0
KSP2 250646Z 13003KT 19/18 A2997 RMK A01 T01910183  RH  095%=      5-min Rain = 0
KSP2 250647Z 13003KT 19/18 A2997 RMK A01 T01910183  RH  095%=      5-min Rain = 0
KSP2 250648Z 13003KT 19/18 A2997 RMK A01 T01900183  RH  095%=      5-min Rain = 0
KSP2 250649Z 13004KT 19/18 A2997 RMK A01 T01890181  RH  095%=      5-min Rain = 0
KSP2 250650Z 13004KT 19/18 A2997 RMK A01 T01880180  RH  095%=      5-min Rain = 0
KSP2 250651Z 13005KT 19/18 A2997 RMK A01 T01870179  RH  095%=      5-min Rain = 0
KSP2 250652Z 13005KT 19/18 A2997 RMK A01 T01860178  RH  095%=      5-min Rain = 0
KSP2 250653Z 13004KT 19/18 A2997 RMK A01 T01860178  RH  095%=      5-min Rain = 0
KSP2 250654Z 14004KT 19/18 A2997 RMK A01 T01850179  RH  096%=      5-min Rain = 0
KSP2 250655Z 14003KT 19/18 A2997 RMK A01 T01850179  RH  096%=      5-min Rain = 0
KSP2 250656Z 14003KT 19/18 A2997 RMK A01 T01860181  RH  097%=      5-min Rain = 0
KSP2 250657Z 13003KT 19/18 A2997 RMK A01 T01870183  RH  097%=      5-min Rain = 0
KSP2 250658Z 15003KT 19/18 A2997 RMK A01 T01880184  RH  097%=      5-min Rain = 0
KSP2 250659Z 15002KT 19/19 A2997 RMK A01 T01890185  RH  097%=      5-min Rain = 0
KSP2 250700Z 15002KT 19/19 A2997 RMK A01 T01890185  RH  098%=      5-min Rain = 0
KSP2 250701Z 15003KT 19/19 A2997 RMK A01 T01900186  RH  098%=      5-min Rain = 0
KSP2 250702Z 17005KT 19/19 A2997 RMK A01 T01910187  RH  098%=      5-min Rain = 0
KSP2 250703Z 16005KT 19/19 A2997 RMK A01 T01920189  RH  098%=      5-min Rain = 0
KSP2 250704Z 16004KT 19/19 A2997 RMK A01 T01940190  RH  097%=      5-min Rain = 0
KSP2 250705Z 15003KT 20/19 A2997 RMK A01 T01950190  RH  097%=      5-min Rain = 0
KSP2 250706Z 16003KT 20/19 A2997 RMK A01 T01960190  RH  096%=      5-min Rain = 0
KSP2 250707Z 17003KT 20/19 A2997 RMK A01 T01970190  RH  096%=      5-min Rain = 0
KSP2 250708Z 17004KT 20/19 A2997 RMK A01 T01970190  RH  095%=      5-min Rain = 0
KSP2 250709Z 18004KT 20/19 A2997 RMK A01 T01970189  RH  095%=      5-min Rain = 0
KSP2 250710Z 18003KT 20/19 A2997 RMK A01 T01970189  RH  095%=      5-min Rain = 0
KSP2 250711Z 19003KT 20/19 A2997 RMK A01 T01970189  RH  095%=      5-min Rain = 0
KSP2 250712Z 18003KT 20/19 A2997 RMK A01 T01970189  RH  095%=      5-min Rain = 0
KSP2 250713Z 18004KT 20/19 A2997 RMK A01 T01980189  RH  095%=      5-min Rain = 0
KSP2 250714Z 19004KT 20/19 A2997 RMK A01 T01980189  RH  094%=      5-min Rain = 0
KSP2 250715Z 19004KT 20/19 A2997 RMK A01 T01980189  RH  094%=      5-min Rain = 0
KSP2 250716Z 19003KT 20/19 A2996 RMK A01 T01980189  RH  094%=      5-min Rain = 0
KSP2 250717Z 18003KT 20/19 A2996 RMK A01 T01980189  RH  094%=      5-min Rain = 0
KSP2 250718Z 17004KT 20/19 A2996 RMK A01 T01980189  RH  094%=      5-min Rain = 0
KSP2 250719Z 17004KT 20/19 A2996 RMK A01 T01990190  RH  094%=      5-min Rain = 0
KSP2 250720Z 17004KT 20/19 A2996 RMK A01 T01990189  RH  094%=      5-min Rain = 0
KSP2 250721Z 17004KT 20/19 A2996 RMK A01 T01990189  RH  094%=      5-min Rain = 0
KSP2 250722Z 18003KT 20/19 A2996 RMK A01 T01990189  RH  094%=      5-min Rain = 0
KSP2 250723Z 18003KT 20/19 A2996 RMK A01 T01990190  RH  094%=      5-min Rain = 0
KSP2 250724Z 17002KT 20/19 A2996 RMK A01 T01990190  RH  094%=      5-min Rain = 0
KSP2 250725Z 16003KT 20/19 A2996 RMK A01 T01990190  RH  094%=      5-min Rain = 0
KSP2 250726Z 16003KT 20/19 A2996 RMK A01 T01990190  RH  094%=      5-min Rain = 0
KSP2 250727Z 15003KT 20/19 A2996 RMK A01 T01990190  RH  094%=      5-min Rain = 0
KSP2 250728Z 15003KT 20/19 A2996 RMK A01 T01990190  RH  094%=      5-min Rain = 0
KSP2 250729Z 15003KT 20/19 A2997 RMK A01 T01990191  RH  095%=      5-min Rain = 0
KSP2 250730Z 15003KT 20/19 A2997 RMK A01 T01990190  RH  095%=      5-min Rain = 0
KSP2 250731Z 15004KT 20/19 A2997 RMK A01 T01990190  RH  095%=      5-min Rain = 0
KSP2 250732Z 15004KT 20/19 A2997 RMK A01 T01990192  RH  095%=      5-min Rain = 0
KSP2 250733Z 15004KT 20/19 A2997 RMK A01 T02000192  RH  095%=      5-min Rain = 0
KSP2 250734Z 15004KT 20/19 A2997 RMK A01 T02000192  RH  095%=      5-min Rain = 0
KSP2 250735Z 14004KT 20/19 A2997 RMK A01 T02000192  RH  095%=      5-min Rain = 0
KSP2 250736Z 14003KT 20/19 A2997 RMK A01 T02000192  RH  095%=      5-min Rain = 0
KSP2 250737Z 14003KT 20/19 A2997 RMK A01 T02000192  RH  095%=      5-min Rain = 0
KSP2 250738Z 15003KT 20/19 A2997 RMK A01 T02000193  RH  095%=      5-min Rain = 0
KSP2 250739Z 15002KT 20/19 A2997 RMK A01 T02000193  RH  095%=      5-min Rain = 0
KSP2 250740Z 14002KT 20/19 A2997 RMK A01 T02000193  RH  095%=      5-min Rain = 0
KSP2 250741Z 14002KT 20/19 A2997 RMK A01 T02000193  RH  095%=      5-min Rain = 0
KSP2 250742Z 15002KT 20/19 A2997 RMK A01 T02000193  RH  095%=      5-min Rain = 0
KSP2 250743Z 16002KT 20/19 A2997 RMK A01 T02000192  RH  095%=      5-min Rain = 0
KSP2 250744Z 14002KT 20/19 A2997 RMK A01 T02000192  RH  095%=      5-min Rain = 0
KSP2 250745Z 14002KT 20/19 A2997 RMK A01 T01990192  RH  095%=      5-min Rain = 0
KSP2 250746Z 13002KT 20/19 A2997 RMK A01 T01990192  RH  095%=      5-min Rain = 0
KSP2 250747Z 14002KT 20/19 A2997 RMK A01 T01980191  RH  095%=      5-min Rain = 0
KSP2 250748Z 13003KT 20/19 A2997 RMK A01 T01980190  RH  095%=      5-min Rain = 0
KSP2 250749Z 13003KT 20/19 A2997 RMK A01 T01970190  RH  095%=      5-min Rain = 0
KSP2 250750Z 13004KT 20/19 A2997 RMK A01 T01970190  RH  096%=      5-min Rain = 0
KSP2 250751Z 12005KT 20/19 A2997 RMK A01 T01960189  RH  096%=      5-min Rain = 0
KSP2 250752Z 12005KT 20/19 A2997 RMK A01 T01960189  RH  096%=      5-min Rain = 0
KSP2 250753Z 11005KT 20/19 A2997 RMK A01 T01960190  RH  096%=      5-min Rain = 0
KSP2 250754Z 10004KT 20/19 A2997 RMK A01 T01960190  RH  097%=      5-min Rain = 0
KSP2 250755Z 10004KT 20/19 A2997 RMK A01 T01960191  RH  097%=      5-min Rain = 0
KSP2 250756Z 10004KT 20/19 A2997 RMK A01 T01960191  RH  097%=      5-min Rain = 0
KSP2 250757Z 11003KT 20/19 A2997 RMK A01 T01960190  RH  097%=      5-min Rain = 0
KSP2 250758Z 10003KT 20/19 A2997 RMK A01 T01950189  RH  097%=      5-min Rain = 0
KSP2 250759Z 10003KT 20/19 A2998 RMK A01 T01950189  RH  096%=      5-min Rain = 0
KSP2 250800Z 10004KT 19/19 A2998 RMK A01 T01940188  RH  096%=      5-min Rain = 0
KSP2 250801Z 09004KT 19/19 A2998 RMK A01 T01930187  RH  096%=      5-min Rain = 0
KSP2 250802Z 09005KT 19/19 A2998 RMK A01 T01920186  RH  096%=      5-min Rain = 0
KSP2 250803Z 10006KT 19/19 A2998 RMK A01 T01910185  RH  096%=      5-min Rain = 0
KSP2 250804Z 10006KT 19/18 A2998 RMK A01 T01910184  RH  096%=      5-min Rain = 0
KSP2 250805Z 10006KT 19/18 A2998 RMK A01 T01900184  RH  096%=      5-min Rain = 0
KSP2 250806Z 10006KT 19/18 A2998 RMK A01 T01900184  RH  096%=      5-min Rain = 0
KSP2 250807Z 10006KT 19/18 A2998 RMK A01 T01900184  RH  097%=      5-min Rain = 0
KSP2 250808Z 11005KT 19/18 A2998 RMK A01 T01890184  RH  097%=      5-min Rain = 0
KSP2 250809Z 11005KT 19/18 A2998 RMK A01 T01890184  RH  097%=      5-min Rain = 0
KSP2 250810Z 12005KT 19/19 A2998 RMK A01 T01900185  RH  097%=      5-min Rain = 0
KSP2 250811Z 13005KT 19/19 A2998 RMK A01 T01900185  RH  097%=      5-min Rain = 0
KSP2 250812Z 14003KT 19/19 A2998 RMK A01 T01900185  RH  097%=      5-min Rain = 0
KSP2 250813Z 15003KT 19/19 A2998 RMK A01 T01890185  RH  097%=      5-min Rain = 0
KSP2 250814Z 15003KT 19/19 A2998 RMK A01 T01890185  RH  097%=      5-min Rain = 0
KSP2 250815Z 15003KT 19/19 A2998 RMK A01 T01900185  RH  097%=      5-min Rain = 0
KSP2 250816Z 14003KT 19/18 A2997 RMK A01 T01890184  RH  097%=      5-min Rain = 0
KSP2 250817Z 14003KT 19/18 A2998 RMK A01 T01890184  RH  097%=      5-min Rain = 0
KSP2 250818Z 14003KT 19/18 A2998 RMK A01 T01880183  RH  097%=      5-min Rain = 0
KSP2 250819Z 14003KT 19/18 A2998 RMK A01 T01880183  RH  097%=      5-min Rain = 0
KSP2 250820Z 14003KT 19/18 A2998 RMK A01 T01880183  RH  097%=      5-min Rain = 0
KSP2 250821Z 14004KT 19/18 A2998 RMK A01 T01880184  RH  097%=      5-min Rain = 0
KSP2 250822Z 13004KT 19/19 A2998 RMK A01 T01890185  RH  098%=      5-min Rain = 0
KSP2 250823Z 13004KT 19/19 A2998 RMK A01 T01900186  RH  098%=      5-min Rain = 0
KSP2 250824Z 13004KT 19/19 A2998 RMK A01 T01900186  RH  098%=      5-min Rain = 0
KSP2 250825Z 13003KT 19/19 A2998 RMK A01 T01900185  RH  097%=      5-min Rain = 0
KSP2 250826Z 13003KT 19/19 A2998 RMK A01 T01890185  RH  097%=      5-min Rain = 0
KSP2 250827Z 12003KT 19/18 A2998 RMK A01 T01880184  RH  097%=      5-min Rain = 0
KSP2 250828Z 14003KT 19/18 A2998 RMK A01 T01880183  RH  097%=      5-min Rain = 0
KSP2 250829Z 17002KT 19/18 A2998 RMK A01 T01870183  RH  097%=      5-min Rain = 0
KSP2 250830Z 16003KT 19/18 A2998 RMK A01 T01860181  RH  097%=      5-min Rain = 0
KSP2 250831Z 14003KT 19/18 A2998 RMK A01 T01870184  RH  098%=      5-min Rain = 0
KSP2 250832Z 15003KT 19/18 A2998 RMK A01 T01870184  RH  098%=      5-min Rain = 0
KSP2 250833Z 14004KT 19/19 A2998 RMK A01 T01900187  RH  098%=      5-min Rain = 0
KSP2 250834Z 16003KT 19/19 A2998 RMK A01 T01900187  RH  098%=      5-min Rain = 0
KSP2 250835Z 17005KT 19/19 A2998 RMK A01 T01900187  RH  098%=      5-min Rain = 0
KSP2 250836Z 17006KT 19/19 A2998 RMK A01 T01900187  RH  098%=      5-min Rain = 0
KSP2 250837Z 17005KT 19/19 A2998 RMK A01 T01910185  RH  097%=      5-min Rain = 0
KSP2 250838Z 17007KT 19/19 A2998 RMK A01 T01920185  RH  096%=      5-min Rain = 0
KSP2 250839Z 18006KT 19/18 A2998 RMK A01 T01930184  RH  095%=      5-min Rain = 0
KSP2 250840Z 19007KT 19/18 A2998 RMK A01 T01940182  RH  093%=      5-min Rain = 0
KSP2 250841Z 19007KT 20/18 A2998 RMK A01 T01950182  RH  092%=      5-min Rain = 0
KSP2 250842Z 19007KT 20/18 A2998 RMK A01 T01950181  RH  091%=      5-min Rain = 0
KSP2 250843Z 19007KT 20/18 A2998 RMK A01 T01950180  RH  091%=      5-min Rain = 0
KSP2 250844Z 20006KT 20/18 A2998 RMK A01 T01960179  RH  090%=      5-min Rain = 0
KSP2 250845Z 20007KT 20/18 A2998 RMK A01 T01960178  RH  090%=      5-min Rain = 0
KSP2 250846Z 19007KT 20/18 A2998 RMK A01 T01960177  RH  089%=      5-min Rain = 0
KSP2 250847Z 19005KT 20/18 A2998 RMK A01 T01960177  RH  089%=      5-min Rain = 0
KSP2 250848Z 19005KT 20/18 A2998 RMK A01 T01960177  RH  089%=      5-min Rain = 0
KSP2 250849Z 19005KT 20/18 A2998 RMK A01 T01950176  RH  089%=      5-min Rain = 0
KSP2 250850Z 19005KT 20/18 A2998 RMK A01 T01950176  RH  089%=      5-min Rain = 0
KSP2 250851Z 19004KT 19/18 A2998 RMK A01 T01940176  RH  089%=      5-min Rain = 0
KSP2 250852Z 19004KT 19/18 A2998 RMK A01 T01940176  RH  089%=      5-min Rain = 0
KSP2 250853Z 19004KT 19/18 A2998 RMK A01 T01940175  RH  089%=      5-min Rain = 0
KSP2 250854Z 20004KT 19/17 A2998 RMK A01 T01930174  RH  089%=      5-min Rain = 0
KSP2 250855Z 20004KT 19/17 A2998 RMK A01 T01930174  RH  089%=      5-min Rain = 0
KSP2 250856Z 21005KT 19/17 A2998 RMK A01 T01920172  RH  088%=      5-min Rain = 0
KSP2 250857Z 20004KT 19/17 A2998 RMK A01 T01910170  RH  088%=      5-min Rain = 0
KSP2 250858Z 20004KT 19/17 A2998 RMK A01 T01900170  RH  088%=      5-min Rain = 0
KSP2 250859Z 20004KT 19/17 A2998 RMK A01 T01890169  RH  088%=      5-min Rain = 0
KSP2 250900Z 20004KT 19/17 A2998 RMK A01 T01880169  RH  088%=      5-min Rain = 0
KSP2 250901Z 19005KT 19/17 A2998 RMK A01 T01870168  RH  089%=      5-min Rain = 0
KSP2 250902Z 19005KT 19/17 A2998 RMK A01 T01870168  RH  089%=      5-min Rain = 0
KSP2 250903Z 19004KT 19/17 A2998 RMK A01 T01860167  RH  089%=      5-min Rain = 0
KSP2 250904Z 19004KT 19/17 A2998 RMK A01 T01860167  RH  088%=      5-min Rain = 0
KSP2 250905Z 19004KT 19/17 A2998 RMK A01 T01850166  RH  089%=      5-min Rain = 0
KSP2 250906Z 19003KT 18/17 A2998 RMK A01 T01840166  RH  089%=      5-min Rain = 0
KSP2 250907Z 19003KT 18/17 A2998 RMK A01 T01840166  RH  089%=      5-min Rain = 0
KSP2 250908Z 20004KT 18/17 A2998 RMK A01 T01830166  RH  090%=      5-min Rain = 0
KSP2 250909Z 20004KT 18/17 A2998 RMK A01 T01820165  RH  090%=      5-min Rain = 0
KSP2 250910Z 20004KT 18/17 A2998 RMK A01 T01810165  RH  090%=      5-min Rain = 0
KSP2 250911Z 20004KT 18/16 A2998 RMK A01 T01810164  RH  090%=      5-min Rain = 0
KSP2 250912Z 21004KT 18/16 A2998 RMK A01 T01800164  RH  090%=      5-min Rain = 0
KSP2 250913Z 19004KT 18/16 A2998 RMK A01 T01800164  RH  090%=      5-min Rain = 0
KSP2 250914Z 19004KT 18/16 A2998 RMK A01 T01790163  RH  090%=      5-min Rain = 0
KSP2 250915Z 18003KT 18/16 A2998 RMK A01 T01790163  RH  090%=      5-min Rain = 0
KSP2 250916Z 16002KT 18/16 A2998 RMK A01 T01770161  RH  090%=      5-min Rain = 0
KSP2 250917Z 16003KT 18/16 A2998 RMK A01 T01760160  RH  091%=      5-min Rain = 0
KSP2 250918Z 16003KT 17/16 A2998 RMK A01 T01740159  RH  091%=      5-min Rain = 0
KSP2 250919Z 16003KT 17/16 A2998 RMK A01 T01720157  RH  091%=      5-min Rain = 0
KSP2 250920Z 15003KT 17/16 A2998 RMK A01 T01710156  RH  091%=      5-min Rain = 0
KSP2 250921Z 15004KT 17/15 A2998 RMK A01 T01690154  RH  091%=      5-min Rain = 0
KSP2 250922Z 15004KT 17/15 A2998 RMK A01 T01680154  RH  091%=      5-min Rain = 0
KSP2 250923Z 15004KT 17/15 A2998 RMK A01 T01670153  RH  092%=      5-min Rain = 0
KSP2 250924Z 15003KT 17/15 A2998 RMK A01 T01650152  RH  092%=      5-min Rain = 0
KSP2 250925Z 14002KT 16/15 A2998 RMK A01 T01640151  RH  092%=      5-min Rain = 0
KSP2 250926Z 14002KT 16/15 A2998 RMK A01 T01630150  RH  092%=      5-min Rain = 0
KSP2 250927Z 14002KT 16/15 A2998 RMK A01 T01630151  RH  093%=      5-min Rain = 0
KSP2 250928Z 14002KT 16/15 A2998 RMK A01 T01630153  RH  094%=      5-min Rain = 0
KSP2 250929Z 13002KT 16/15 A2998 RMK A01 T01630154  RH  095%=      5-min Rain = 0
KSP2 250930Z 12002KT 16/16 A2998 RMK A01 T01640157  RH  095%=      5-min Rain = 0
KSP2 250931Z 13003KT 17/16 A2998 RMK A01 T01650158  RH  095%=      5-min Rain = 0
KSP2 250932Z 10003KT 17/16 A2998 RMK A01 T01650155  RH  094%=      5-min Rain = 0
KSP2 250933Z 10003KT 17/16 A2998 RMK A01 T01650155  RH  094%=      5-min Rain = 0
KSP2 250934Z 10003KT 16/15 A2998 RMK A01 T01640154  RH  094%=      5-min Rain = 0
KSP2 250935Z 10004KT 16/15 A2998 RMK A01 T01630153  RH  094%=      5-min Rain = 0
KSP2 250936Z 11003KT 16/15 A2998 RMK A01 T01620152  RH  094%=      5-min Rain = 0
KSP2 250937Z 10004KT 16/15 A2998 RMK A01 T01620153  RH  095%=      5-min Rain = 0
KSP2 250938Z 10004KT 16/15 A2998 RMK A01 T01610153  RH  095%=      5-min Rain = 0
KSP2 250939Z 11004KT 16/15 A2998 RMK A01 T01600152  RH  095%=      5-min Rain = 0
KSP2 250940Z 10004KT 16/15 A2998 RMK A01 T01600152  RH  095%=      5-min Rain = 0
KSP2 250941Z 10004KT 16/15 A2998 RMK A01 T01600152  RH  095%=      5-min Rain = 0
KSP2 250942Z 09004KT 16/15 A2998 RMK A01 T01580150  RH  095%=      5-min Rain = 0
KSP2 250943Z 09004KT 16/15 A2998 RMK A01 T01580151  RH  095%=      5-min Rain = 0
KSP2 250944Z 09002KT 16/15 A2998 RMK A01 T01590152  RH  096%=      5-min Rain = 0
KSP2 250945Z 07001KT 16/15 A2998 RMK A01 T01590153  RH  096%=      5-min Rain = 0
KSP2 250946Z 08002KT 16/15 A2998 RMK A01 T01600154  RH  097%=      5-min Rain = 0
KSP2 250947Z 09003KT 16/15 A2998 RMK A01 T01600154  RH  096%=      5-min Rain = 0
KSP2 250948Z 10003KT 16/15 A2998 RMK A01 T01590154  RH  096%=      5-min Rain = 0
KSP2 250949Z 09003KT 16/16 A2998 RMK A01 T01600155  RH  097%=      5-min Rain = 0
KSP2 250950Z 09004KT 16/16 A2998 RMK A01 T01610157  RH  097%=      5-min Rain = 0
KSP2 250951Z 09004KT 16/16 A2998 RMK A01 T01620157  RH  097%=      5-min Rain = 0
KSP2 250952Z 09004KT 16/16 A2998 RMK A01 T01610156  RH  097%=      5-min Rain = 0
KSP2 250953Z 09005KT 16/16 A2998 RMK A01 T01600155  RH  097%=      5-min Rain = 0
KSP2 250954Z 09004KT 16/15 A2998 RMK A01 T01600154  RH  097%=      5-min Rain = 0
KSP2 250955Z 09004KT 16/15 A2998 RMK A01 T01590153  RH  096%=      5-min Rain = 0
KSP2 250956Z 09004KT 16/15 A2998 RMK A01 T01580152  RH  096%=      5-min Rain = 0
KSP2 250957Z 09004KT 16/15 A2998 RMK A01 T01580152  RH  096%=      5-min Rain = 0
KSP2 250958Z 09003KT 16/15 A2998 RMK A01 T01580152  RH  096%=      5-min Rain = 0
KSP2 250959Z 09003KT 16/15 A2998 RMK A01 T01580153  RH  097%=      5-min Rain = 0
KSP2 251000Z 09002KT 16/15 A2998 RMK A01 T01580153  RH  097%=      5-min Rain = 0
KSP2 251001Z 08002KT 16/15 A2998 RMK A01 T01580153  RH  097%=      5-min Rain = 0
KSP2 251002Z 08002KT 16/15 A2998 RMK A01 T01590154  RH  097%=      5-min Rain = 0
KSP2 251003Z 08002KT 16/16 A2998 RMK A01 T01590155  RH  097%=      5-min Rain = 0
KSP2 251004Z 08002KT 16/16 A2998 RMK A01 T01600157  RH  098%=      5-min Rain = 0
KSP2 251005Z 08002KT 16/16 A2998 RMK A01 T01610157  RH  098%=      5-min Rain = 0
KSP2 251006Z 09002KT 16/16 A2998 RMK A01 T01610157  RH  098%=      5-min Rain = 0
KSP2 251007Z 09002KT 16/16 A2998 RMK A01 T01610157  RH  098%=      5-min Rain = 0
KSP2 251008Z 09002KT 16/16 A2998 RMK A01 T01610157  RH  098%=      5-min Rain = 0
KSP2 251009Z 10002KT 16/16 A2998 RMK A01 T01600157  RH  098%=      5-min Rain = 0
KSP2 251010Z 11002KT 16/16 A2998 RMK A01 T01600156  RH  098%=      5-min Rain = 0
KSP2 251011Z 11002KT 16/16 A2998 RMK A01 T01600156  RH  098%=      5-min Rain = 0
KSP2 251012Z 10002KT 16/16 A2998 RMK A01 T01590155  RH  098%=      5-min Rain = 0
KSP2 251013Z 10002KT 16/16 A2998 RMK A01 T01590155  RH  098%=      5-min Rain = 0
KSP2 251014Z 11002KT 16/16 A2998 RMK A01 T01590155  RH  098%=      5-min Rain = 0
KSP2 251015Z 11003KT 16/16 A2998 RMK A01 T01590155  RH  098%=      5-min Rain = 0
KSP2 251016Z 11003KT 16/16 A2998 RMK A01 T01590156  RH  098%=      5-min Rain = 0
KSP2 251017Z 11004KT 16/16 A2998 RMK A01 T01600157  RH  098%=      5-min Rain = 0
KSP2 251018Z 10004KT 16/16 A2998 RMK A01 T01600156  RH  098%=      5-min Rain = 0
KSP2 251019Z 10003KT 16/16 A2998 RMK A01 T01590156  RH  098%=      5-min Rain = 0
KSP2 251020Z 10003KT 16/16 A2998 RMK A01 T01590155  RH  097%=      5-min Rain = 0
KSP2 251021Z 11003KT 16/16 A2999 RMK A01 T01590155  RH  097%=      5-min Rain = 0
KSP2 251022Z 12002KT 16/16 A2999 RMK A01 T01590155  RH  098%=      5-min Rain = 0
KSP2 251023Z 14002KT 16/16 A2999 RMK A01 T01590155  RH  097%=      5-min Rain = 0
KSP2 251024Z 15002KT 16/15 A2999 RMK A01 T01580153  RH  097%=      5-min Rain = 0
KSP2 251025Z 14002KT 16/15 A2999 RMK A01 T01570152  RH  097%=      5-min Rain = 0
KSP2 251026Z 13002KT 16/15 A2999 RMK A01 T01570152  RH  097%=      5-min Rain = 0
KSP2 251027Z 13002KT 16/15 A2999 RMK A01 T01570153  RH  097%=      5-min Rain = 0
KSP2 251028Z 13002KT 16/15 A2999 RMK A01 T01580153  RH  097%=      5-min Rain = 0
KSP2 251029Z 13003KT 16/15 A2999 RMK A01 T01580152  RH  097%=      5-min Rain = 0
KSP2 251030Z 13004KT 16/15 A2999 RMK A01 T01550147  RH  095%=      5-min Rain = 0
KSP2 251031Z 13005KT 15/15 A2999 RMK A01 T01540148  RH  096%=      5-min Rain = 0
KSP2 251032Z 13005KT 16/15 A2999 RMK A01 T01550150  RH  097%=      5-min Rain = 0
KSP2 251033Z 13006KT 16/15 A2999 RMK A01 T01560152  RH  097%=      5-min Rain = 0
KSP2 251034Z 13006KT 16/15 A30 RMK A01 T01570153  RH  097%=      5-min Rain = 0
KSP2 251035Z 13006KT 16/15 A30 RMK A01 T01570153  RH  097%=      5-min Rain = 0
KSP2 251036Z 13005KT 16/15 A30 RMK A01 T01580154  RH  097%=      5-min Rain = 0
KSP2 251037Z 12005KT 16/16 A2999 RMK A01 T01590155  RH  097%=      5-min Rain = 0
KSP2 251038Z 13005KT 16/16 A2999 RMK A01 T01590155  RH  097%=      5-min Rain = 0
KSP2 251039Z 14006KT 16/16 A30 RMK A01 T01590155  RH  097%=      5-min Rain = 0
KSP2 251040Z 14006KT 16/16 A30 RMK A01 T01600155  RH  097%=      5-min Rain = 0
KSP2 251041Z 14007KT 16/16 A30 RMK A01 T01610157  RH  097%=      5-min Rain = 0
KSP2 251042Z 14007KT 16/16 A30 RMK A01 T01620157  RH  097%=      5-min Rain = 0
KSP2 251043Z 14006KT 16/16 A30 RMK A01 T01620156  RH  096%=      5-min Rain = 0
KSP2 251044Z 14006KT 16/16 A30 RMK A01 T01630156  RH  096%=      5-min Rain = 0
KSP2 251045Z 14006KT 16/16 A30 RMK A01 T01630156  RH  096%=      5-min Rain = 0
KSP2 251046Z 15005KT 16/16 A30 RMK A01 T01630156  RH  095%=      5-min Rain = 0
KSP2 251047Z 15005KT 16/16 A30 RMK A01 T01630155  RH  095%=      5-min Rain = 0
KSP2 251048Z 16005KT 16/15 A30 RMK A01 T01620154  RH  095%=      5-min Rain = 0
KSP2 251049Z 16006KT 16/15 A30 RMK A01 T01610153  RH  095%=      5-min Rain = 0
KSP2 251050Z 16005KT 16/15 A30 RMK A01 T01610152  RH  095%=      5-min Rain = 0
KSP2 251051Z 15005KT 16/15 A30 RMK A01 T01600152  RH  095%=      5-min Rain = 0
KSP2 251052Z 15005KT 16/15 A3001 RMK A01 T01600152  RH  095%=      5-min Rain = 0
KSP2 251053Z 15006KT 16/15 A3001 RMK A01 T01600151  RH  095%=      5-min Rain = 0
KSP2 251054Z 15006KT 16/15 A3001 RMK A01 T01590151  RH  095%=      5-min Rain = 0
KSP2 251055Z 15007KT 16/15 A3001 RMK A01 T01590151  RH  095%=      5-min Rain = 0
KSP2 251056Z 15007KT 16/15 A3001 RMK A01 T01590151  RH  095%=      5-min Rain = 0
KSP2 251057Z 15007KT 16/15 A3001 RMK A01 T01590152  RH  096%=      5-min Rain = 0
KSP2 251058Z 15006KT 16/15 A3001 RMK A01 T01600153  RH  096%=      5-min Rain = 0
KSP2 251059Z 15005KT 16/15 A3001 RMK A01 T01610154  RH  096%=      5-min Rain = 0
KSP2 251100Z 15004KT 16/15 A3001 RMK A01 T01610154  RH  096%=      5-min Rain = 0
KSP2 251101Z 15004KT 16/15 A3001 RMK A01 T01620154  RH  095%=      5-min Rain = 0
KSP2 251102Z 15004KT 16/15 A3001 RMK A01 T01620154  RH  095%=      5-min Rain = 0
KSP2 251103Z 15004KT 16/15 A3001 RMK A01 T01620154  RH  095%=      5-min Rain = 0
KSP2 251104Z 15005KT 16/15 A3001 RMK A01 T01620153  RH  094%=      5-min Rain = 0
KSP2 251105Z 15006KT 16/15 A3002 RMK A01 T01620153  RH  094%=      5-min Rain = 0
KSP2 251106Z 15006KT 16/15 A3002 RMK A01 T01610152  RH  094%=      5-min Rain = 0
KSP2 251107Z 15006KT 16/15 A3002 RMK A01 T01600151  RH  094%=      5-min Rain = 0
KSP2 251108Z 15005KT 16/15 A3002 RMK A01 T01600152  RH  095%=      5-min Rain = 0
KSP2 251109Z 15004KT 16/15 A3002 RMK A01 T01600151  RH  095%=      5-min Rain = 0
KSP2 251110Z 15003KT 16/15 A3001 RMK A01 T01600152  RH  095%=      5-min Rain = 0
KSP2 251111Z 15002KT 16/15 A3001 RMK A01 T01600152  RH  095%=      5-min Rain = 0
KSP2 251112Z 14001KT 16/15 A3001 RMK A01 T01600151  RH  095%=      5-min Rain = 0
KSP2 251113Z 15002KT 16/15 A3001 RMK A01 T01590151  RH  095%=      5-min Rain = 0
KSP2 251114Z 15002KT 16/15 A3001 RMK A01 T01590151  RH  095%=      5-min Rain = 0
KSP2 251115Z 15002KT 16/15 A3001 RMK A01 T01590151  RH  095%=      5-min Rain = 0
KSP2 251116Z 15002KT 16/15 A3001 RMK A01 T01580150  RH  095%=      5-min Rain = 0
KSP2 251117Z 16002KT 16/15 A3001 RMK A01 T01580149  RH  095%=      5-min Rain = 0
KSP2 251118Z 16003KT 16/15 A3001 RMK A01 T01570150  RH  095%=      5-min Rain = 0
KSP2 251119Z 16002KT 16/15 A3001 RMK A01 T01570150  RH  096%=      5-min Rain = 0
KSP2 251120Z 15002KT 16/15 A3001 RMK A01 T01570151  RH  096%=      5-min Rain = 0
KSP2 251121Z 16002KT 16/15 A3001 RMK A01 T01570151  RH  096%=      5-min Rain = 0
KSP2 251122Z 16002KT 16/15 A3001 RMK A01 T01570151  RH  096%=      5-min Rain = 0
KSP2 251123Z 16002KT 16/15 A3001 RMK A01 T01570152  RH  096%=      5-min Rain = 0
KSP2 251124Z 17003KT 16/15 A3001 RMK A01 T01570152  RH  096%=      5-min Rain = 0
KSP2 251125Z 17003KT 16/15 A3001 RMK A01 T01570152  RH  096%=      5-min Rain = 0
KSP2 251126Z 18003KT 16/15 A3001 RMK A01 T01580152  RH  096%=      5-min Rain = 0
KSP2 251127Z 18003KT 16/15 A3001 RMK A01 T01570152  RH  097%=      5-min Rain = 0
KSP2 251128Z 18004KT 16/15 A3001 RMK A01 T01570152  RH  097%=      5-min Rain = 0
KSP2 251129Z 19004KT 16/15 A3001 RMK A01 T01570151  RH  096%=      5-min Rain = 0
KSP2 251130Z 20004KT 16/15 A3001 RMK A01 T01560150  RH  096%=      5-min Rain = 0
KSP2 251131Z 20004KT 16/15 A3001 RMK A01 T01550149  RH  096%=      5-min Rain = 0
KSP2 251132Z 21003KT 16/15 A3001 RMK A01 T01550148  RH  096%=      5-min Rain = 0
KSP2 251133Z 21004KT 15/15 A3001 RMK A01 T01540148  RH  096%=      5-min Rain = 0
KSP2 251134Z 21004KT 15/15 A3001 RMK A01 T01540149  RH  097%=      5-min Rain = 0
KSP2 251135Z 21004KT 15/15 A3001 RMK A01 T01540149  RH  097%=      5-min Rain = 0
KSP2 251136Z 21004KT 15/15 A3001 RMK A01 T01540149  RH  097%=      5-min Rain = 0
KSP2 251137Z 22004KT 15/15 A3001 RMK A01 T01540149  RH  097%=      5-min Rain = 0
KSP2 251138Z 22004KT 15/15 A3001 RMK A01 T01540148  RH  097%=      5-min Rain = 0
KSP2 251139Z 22004KT 15/15 A3001 RMK A01 T01540149  RH  097%=      5-min Rain = 0
KSP2 251140Z 23004KT 15/15 A3001 RMK A01 T01540150  RH  097%=      5-min Rain = 0
KSP2 251141Z 23004KT 15/15 A3001 RMK A01 T01540150  RH  097%=      5-min Rain = 0
KSP2 251142Z 24004KT 15/15 A3001 RMK A01 T01540149  RH  097%=      5-min Rain = 0
KSP2 251143Z 24004KT 15/15 A3001 RMK A01 T01540149  RH  097%=      5-min Rain = 0
KSP2 251144Z 24004KT 15/15 A3001 RMK A01 T01540149  RH  097%=      5-min Rain = 0
KSP2 251145Z 24004KT 15/15 A3001 RMK A01 T01540149  RH  097%=      5-min Rain = 0
KSP2 251146Z 23004KT 15/15 A3001 RMK A01 T01540149  RH  097%=      5-min Rain = 0
KSP2 251147Z 24004KT 15/15 A3001 RMK A01 T01540149  RH  097%=      5-min Rain = 0
KSP2 251148Z 24004KT 15/15 A3001 RMK A01 T01540148  RH  097%=      5-min Rain = 0
KSP2 251149Z 23004KT 15/15 A3001 RMK A01 T01540148  RH  096%=      5-min Rain = 0
KSP2 251150Z 23004KT 15/15 A3001 RMK A01 T01540148  RH  096%=      5-min Rain = 0
KSP2 251151Z 24004KT 15/15 A3001 RMK A01 T01540148  RH  096%=      5-min Rain = 0
KSP2 251152Z 24004KT 15/15 A3001 RMK A01 T01540148  RH  096%=      5-min Rain = 0
KSP2 251153Z 25004KT 15/15 A3001 RMK A01 T01540148  RH  096%=      5-min Rain = 0
KSP2 251154Z 25004KT 15/15 A3001 RMK A01 T01540148  RH  096%=      5-min Rain = 0
KSP2 251155Z 25004KT 15/15 A3001 RMK A01 T01540148  RH  096%=      5-min Rain = 0
KSP2 251156Z 25004KT 15/15 A3001 RMK A01 T01540148  RH  096%=      5-min Rain = 0
KSP2 251157Z 25004KT 15/15 A3001 RMK A01 T01540148  RH  096%=      5-min Rain = 0
KSP2 251158Z 25004KT 16/15 A3001 RMK A01 T01550148  RH  096%=      5-min Rain = 0
KSP2 251159Z 25004KT 16/15 A3001 RMK A01 T01550148  RH  096%=      5-min Rain = 0
KSP2 251200Z 25004KT 16/15 A3001 RMK A01 T01550148  RH  096%=      5-min Rain = 0
KSP2 251201Z 25004KT 16/15 A3001 RMK A01 T01550148  RH  096%=      5-min Rain = 0
KSP2 251202Z 24004KT 16/15 A3001 RMK A01 T01560149  RH  096%=      5-min Rain = 0
KSP2 251203Z 24003KT 16/15 A3001 RMK A01 T01560149  RH  096%=      5-min Rain = 0
KSP2 251204Z 25003KT 16/15 A3001 RMK A01 T01570150  RH  096%=      5-min Rain = 0
KSP2 251205Z 25003KT 16/15 A3001 RMK A01 T01570150  RH  095%=      5-min Rain = 0
KSP2 251206Z 25003KT 16/15 A3002 RMK A01 T01580150  RH  095%=      5-min Rain = 0
KSP2 251207Z 25003KT 16/15 A3002 RMK A01 T01580150  RH  095%=      5-min Rain = 0
KSP2 251208Z 24003KT 16/15 A3002 RMK A01 T01580150  RH  095%=      5-min Rain = 0
KSP2 251209Z 24003KT 16/15 A3002 RMK A01 T01580150  RH  094%=      5-min Rain = 0
KSP2 251210Z 23003KT 16/15 A3002 RMK A01 T01590150  RH  094%=      5-min Rain = 0
KSP2 251211Z 22002KT 16/15 A3002 RMK A01 T01590150  RH  094%=      5-min Rain = 0
KSP2 251212Z 22002KT 16/15 A3002 RMK A01 T01600150  RH  094%=      5-min Rain = 0
KSP2 251213Z 22002KT 16/15 A3002 RMK A01 T01600149  RH  093%=      5-min Rain = 0
KSP2 251214Z 23003KT 16/15 A3002 RMK A01 T01600148  RH  093%=      5-min Rain = 0
KSP2 251215Z 23003KT 16/15 A3002 RMK A01 T01600149  RH  093%=      5-min Rain = 0
KSP2 251216Z 23003KT 16/15 A3002 RMK A01 T01600149  RH  093%=      5-min Rain = 0
KSP2 251217Z 22004KT 16/15 A3002 RMK A01 T01610151  RH  094%=      5-min Rain = 0
KSP2 251218Z 22004KT 16/15 A3002 RMK A01 T01620152  RH  094%=      5-min Rain = 0
KSP2 251219Z 22004KT 16/15 A3002 RMK A01 T01620153  RH  094%=      5-min Rain = 0
KSP2 251220Z 22004KT 16/15 A3002 RMK A01 T01640154  RH  094%=      5-min Rain = 0
KSP2 251221Z 22004KT 17/16 A3002 RMK A01 T01650155  RH  094%=      5-min Rain = 0
KSP2 251222Z 22004KT 17/16 A3002 RMK A01 T01660155  RH  094%=      5-min Rain = 0
KSP2 251223Z 22004KT 17/16 A3002 RMK A01 T01660155  RH  093%=      5-min Rain = 0
KSP2 251224Z 23005KT 17/16 A3002 RMK A01 T01670155  RH  092%=      5-min Rain = 0
KSP2 251225Z 23004KT 17/16 A3002 RMK A01 T01670155  RH  092%=      5-min Rain = 0
KSP2 251226Z 23004KT 17/16 A3002 RMK A01 T01680155  RH  092%=      5-min Rain = 0
KSP2 251227Z 23004KT 17/16 A3002 RMK A01 T01680156  RH  093%=      5-min Rain = 0
KSP2 251228Z 23005KT 17/16 A3002 RMK A01 T01680156  RH  093%=      5-min Rain = 0
KSP2 251229Z 24005KT 17/16 A3002 RMK A01 T01690157  RH  093%=      5-min Rain = 0
KSP2 251230Z 24005KT 17/16 A3002 RMK A01 T01690157  RH  092%=      5-min Rain = 0
KSP2 251231Z 24005KT 17/16 A3002 RMK A01 T01700157  RH  092%=      5-min Rain = 0
KSP2 251232Z 24005KT 17/16 A3001 RMK A01 T01710158  RH  092%=      5-min Rain = 0
KSP2 251233Z 24005KT 17/16 A3001 RMK A01 T01710159  RH  092%=      5-min Rain = 0
KSP2 251234Z 24005KT 17/16 A3001 RMK A01 T01720159  RH  092%=      5-min Rain = 0
KSP2 251235Z 24005KT 17/16 A3001 RMK A01 T01730159  RH  092%=      5-min Rain = 0
KSP2 251236Z 24006KT 17/16 A3001 RMK A01 T01740160  RH  092%=      5-min Rain = 0
KSP2 251237Z 24005KT 17/16 A3001 RMK A01 T01740160  RH  091%=      5-min Rain = 0
KSP2 251238Z 24005KT 18/16 A3001 RMK A01 T01750160  RH  091%=      5-min Rain = 0
KSP2 251239Z 24005KT 18/16 A3001 RMK A01 T01750160  RH  091%=      5-min Rain = 0
KSP2 251240Z 24005KT 18/16 A3001 RMK A01 T01760161  RH  091%=      5-min Rain = 0
KSP2 251241Z 24005KT 18/16 A3002 RMK A01 T01760161  RH  091%=      5-min Rain = 0
KSP2 251242Z 24006KT 18/16 A3002 RMK A01 T01770162  RH  091%=      5-min Rain = 0
KSP2 251243Z 24006KT 18/16 A3002 RMK A01 T01770162  RH  091%=      5-min Rain = 0
KSP2 251244Z 24005KT 18/16 A3002 RMK A01 T01780162  RH  090%=      5-min Rain = 0
KSP2 251245Z 25005KT 18/16 A3001 RMK A01 T01790163  RH  090%=      5-min Rain = 0
KSP2 251246Z 25006KT 18/16 A3001 RMK A01 T01800163  RH  090%=      5-min Rain = 0
KSP2 251247Z 25006KT 18/16 A3001 RMK A01 T01810162  RH  089%=      5-min Rain = 0
KSP2 251248Z 25006KT 18/16 A3001 RMK A01 T01820162  RH  088%=      5-min Rain = 0
KSP2 251249Z 25006KT 18/16 A3001 RMK A01 T01830162  RH  088%=      5-min Rain = 0
KSP2 251250Z 24007KT 18/16 A3001 RMK A01 T01830163  RH  088%=      5-min Rain = 0
KSP2 251251Z 24006KT 18/16 A3002 RMK A01 T01840162  RH  087%=      5-min Rain = 0
KSP2 251252Z 25006KT 19/16 A3002 RMK A01 T01850163  RH  087%=      5-min Rain = 0
KSP2 251253Z 25007KT 19/16 A3002 RMK A01 T01860164  RH  087%=      5-min Rain = 0
KSP2 251254Z 25006KT 19/16 A3002 RMK A01 T01860163  RH  086%=      5-min Rain = 0
KSP2 251255Z 25006KT 19/16 A3002 RMK A01 T01870164  RH  086%=      5-min Rain = 0
KSP2 251256Z 25007KT 19/16 A3002 RMK A01 T01880163  RH  085%=      5-min Rain = 0
KSP2 251257Z 25007KT 19/16 A3002 RMK A01 T01890161  RH  084%=      5-min Rain = 0
KSP2 251258Z 25007KT 19/16 A3002 RMK A01 T01900161  RH  083%=      5-min Rain = 0
KSP2 251259Z 26008KT 19/16 A3002 RMK A01 T01910160  RH  083%=      5-min Rain = 0
KSP2 251300Z 26008KT 19/16 A3002 RMK A01 T01910159  RH  082%=      5-min Rain = 0
KSP2 251301Z 26008KT 19/16 A3001 RMK A01 T01920160  RH  082%=      5-min Rain = 0
KSP2 251302Z 26006KT 19/16 A3001 RMK A01 T01930162  RH  082%=      5-min Rain = 0
KSP2 251303Z 26007KT 19/16 A3001 RMK A01 T01940162  RH  082%=      5-min Rain = 0
KSP2 251304Z 26008KT 19/16 A3001 RMK A01 T01940160  RH  081%=      5-min Rain = 0
KSP2 251305Z 26007KT 20/16 A3001 RMK A01 T01950158  RH  079%=      5-min Rain = 0
KSP2 251306Z 26008KT 20/16 A3001 RMK A01 T01960158  RH  079%=      5-min Rain = 0
KSP2 251307Z 26008KT 20/16 A3001 RMK A01 T01960158  RH  079%=      5-min Rain = 0
KSP2 251308Z 26008KT 20/16 A3001 RMK A01 T01960158  RH  078%=      5-min Rain = 0
KSP2 251309Z 25009KT 20/16 A3001 RMK A01 T01970158  RH  078%=      5-min Rain = 0
KSP2 251310Z 26008KT 20/16 A3002 RMK A01 T01970157  RH  077%=      5-min Rain = 0
KSP2 251311Z 25007KT 20/16 A3002 RMK A01 T01980159  RH  078%=      5-min Rain = 0
KSP2 251312Z 26007KT 20/16 A3002 RMK A01 T01990159  RH  078%=      5-min Rain = 0
KSP2 251313Z 25009KT 20/16 A3002 RMK A01 T01990158  RH  077%=      5-min Rain = 0
KSP2 251314Z 25010KT 20/16 A3002 RMK A01 T02000155  RH  075%=      5-min Rain = 0
KSP2 251315Z 25009KT 20/15 A3002 RMK A01 T02010154  RH  074%=      5-min Rain = 0
KSP2 251316Z 25010KT 20/15 A3002 RMK A01 T02010154  RH  074%=      5-min Rain = 0
KSP2 251317Z 25009KT 20/15 A3002 RMK A01 T02020153  RH  074%=      5-min Rain = 0
KSP2 251318Z 25009KT 20/15 A3002 RMK A01 T02020154  RH  073%=      5-min Rain = 0
KSP2 251319Z 25011KT 20/15 A3002 RMK A01 T02030152  RH  073%=      5-min Rain = 0
KSP2 251320Z 24010KT 20/15 A3002 RMK A01 T02030149  RH  071%=      5-min Rain = 0
KSP2 251321Z 25010KT 20/15 A3002 RMK A01 T02040150  RH  071%=      5-min Rain = 0
KSP2 251322Z 25010KT 20/15 A3002 RMK A01 T02040148  RH  070%=      5-min Rain = 0
KSP2 251323Z 25010KT 21/15 A3002 RMK A01 T02050147  RH  070%=      5-min Rain = 0
KSP2 251324Z 25011KT 21/15 A3002 RMK A01 T02050148  RH  070%=      5-min Rain = 0
KSP2 251325Z 25010KT 21/15 A3002 RMK A01 T02060147  RH  069%=      5-min Rain = 0
KSP2 251326Z 25009KT 21/15 A3002 RMK A01 T02060147  RH  069%=      5-min Rain = 0
KSP2 251327Z 25009KT 21/15 A3003 RMK A01 T02060149  RH  070%=      5-min Rain = 0
KSP2 251328Z 25009KT 21/15 A3003 RMK A01 T02070147  RH  069%=      5-min Rain = 0
KSP2 251329Z 25007KT 21/15 A3003 RMK A01 T02070150  RH  070%=      5-min Rain = 0
KSP2 251330Z 26009KT 21/15 A3003 RMK A01 T02080150  RH  070%=      5-min Rain = 0
KSP2 251331Z 25009KT 21/15 A3003 RMK A01 T02080147  RH  068%=      5-min Rain = 0
KSP2 251332Z 25008KT 21/15 A3003 RMK A01 T02080149  RH  069%=      5-min Rain = 0
KSP2 251333Z 25010KT 21/15 A3003 RMK A01 T02090148  RH  068%=      5-min Rain = 0
KSP2 251334Z 25011KT 21/15 A3003 RMK A01 T02090146  RH  067%=      5-min Rain = 0
KSP2 251335Z 25010KT 21/15 A3003 RMK A01 T02100148  RH  068%=      5-min Rain = 0
KSP2 251336Z 25012KT 21/15 A3003 RMK A01 T02100146  RH  067%=      5-min Rain = 0
KSP2 251337Z 25008KT 21/15 A3003 RMK A01 T02100147  RH  067%=      5-min Rain = 0
KSP2 251338Z 25009KT 21/15 A3003 RMK A01 T02100148  RH  067%=      5-min Rain = 0
KSP2 251339Z 25010KT 21/15 A3003 RMK A01 T02110149  RH  067%=      5-min Rain = 0
KSP2 251340Z 25010KT 21/15 A3003 RMK A01 T02120146  RH  066%=      5-min Rain = 0
KSP2 251341Z 25012KT 21/15 A3003 RMK A01 T02120146  RH  066%=      5-min Rain = 0
KSP2 251342Z 25011KT 21/15 A3003 RMK A01 T02120145  RH  065%=      5-min Rain = 0
KSP2 251343Z 25011KT 21/15 A3003 RMK A01 T02130147  RH  066%=      5-min Rain = 0
KSP2 251344Z 25009KT 21/15 A3003 RMK A01 T02130146  RH  065%=      5-min Rain = 0
KSP2 251345Z 25008KT 21/15 A3003 RMK A01 T02140147  RH  066%=      5-min Rain = 0
KSP2 251346Z 25008KT 22/15 A3003 RMK A01 T02150151  RH  067%=      5-min Rain = 0
KSP2 251347Z 25008KT 22/15 A3003 RMK A01 T02160149  RH  066%=      5-min Rain = 0
KSP2 251348Z 25009KT 22/15 A3003 RMK A01 T02170151  RH  066%=      5-min Rain = 0
KSP2 251349Z 24012KT 22/15 A3003 RMK A01 T02180146  RH  063%=      5-min Rain = 0
KSP2 251350Z 24010KT 22/15 A3003 RMK A01 T02190145  RH  063%=      5-min Rain = 0
KSP2 251351Z 25009G14KT 22/15 A3003 RMK A01 T02180148  RH  064%=      5-min Rain = 0
KSP2 251352Z 25009KT 22/15 A3003 RMK A01 T02180148  RH  064%=      5-min Rain = 0
KSP2 251353Z 25007KT 22/15 A3003 RMK A01 T02180148  RH  064%=      5-min Rain = 0
KSP2 251354Z 24009KT 22/15 A3004 RMK A01 T02190148  RH  064%=      5-min Rain = 0
KSP2 251355Z 24009KT 22/15 A3004 RMK A01 T02190149  RH  064%=      5-min Rain = 0
KSP2 251356Z 25010KT 22/15 A3004 RMK A01 T02200149  RH  064%=      5-min Rain = 0
KSP2 251357Z 26011KT 22/15 A3003 RMK A01 T02210146  RH  062%=      5-min Rain = 0
KSP2 251358Z 25008KT 22/15 A3003 RMK A01 T02210147  RH  063%=      5-min Rain = 0
KSP2 251359Z 25009G15KT 22/15 A3003 RMK A01 T02220147  RH  062%=      5-min Rain = 0
KSP2 251400Z 25012KT 22/15 A3003 RMK A01 T02220145  RH  061%=      5-min Rain = 0
KSP2 251401Z 24012KT 22/14 A3003 RMK A01 T02220144  RH  061%=      5-min Rain = 0
KSP2 251402Z 24010KT 22/15 A3003 RMK A01 T02220146  RH  062%=      5-min Rain = 0
KSP2 251403Z 24012KT 22/15 A3003 RMK A01 T02230146  RH  062%=      5-min Rain = 0
KSP2 251404Z 24010KT 22/14 A3003 RMK A01 T02230144  RH  061%=      5-min Rain = 0
KSP2 251405Z 24010KT 22/15 A3003 RMK A01 T02230146  RH  061%=      5-min Rain = 0
KSP2 251406Z 23011KT 22/15 A3003 RMK A01 T02230145  RH  061%=      5-min Rain = 0
KSP2 251407Z 24012KT 22/14 A3003 RMK A01 T02230144  RH  061%=      5-min Rain = 0
KSP2 251408Z 25012KT 22/14 A3003 RMK A01 T02230143  RH  060%=      5-min Rain = 0
KSP2 251409Z 25014KT 22/14 A3003 RMK A01 T02240144  RH  060%=      5-min Rain = 0
KSP2 251410Z 25012KT 22/14 A3003 RMK A01 T02240143  RH  060%=      5-min Rain = 0
KSP2 251411Z 26011KT 22/15 A3003 RMK A01 T02240145  RH  061%=      5-min Rain = 0
KSP2 251412Z 25012KT 23/14 A3003 RMK A01 T02250144  RH  060%=      5-min Rain = 0
KSP2 251413Z 25011KT 23/14 A3003 RMK A01 T02250144  RH  060%=      5-min Rain = 0
KSP2 251414Z 25012KT 23/15 A3003 RMK A01 T02260145  RH  060%=      5-min Rain = 0
KSP2 251415Z 25011KT 23/15 A3003 RMK A01 T02270146  RH  060%=      5-min Rain = 0
KSP2 251416Z 25010KT 23/15 A3003 RMK A01 T02270145  RH  060%=      5-min Rain = 0
KSP2 251417Z 24012KT 23/15 A3003 RMK A01 T02280146  RH  060%=      5-min Rain = 0
KSP2 251418Z 24011KT 23/15 A3003 RMK A01 T02280146  RH  060%=      5-min Rain = 0
KSP2 251419Z 25011KT 23/15 A3003 RMK A01 T02290145  RH  059%=      5-min Rain = 0
KSP2 251420Z 25012KT 23/14 A3003 RMK A01 T02290144  RH  059%=      5-min Rain = 0
KSP2 251421Z 25013KT 23/15 A3003 RMK A01 T02300145  RH  059%=      5-min Rain = 0
KSP2 251422Z 25014KT 23/14 A3003 RMK A01 T02310144  RH  058%=      5-min Rain = 0
KSP2 251423Z 25013KT 23/14 A3003 RMK A01 T02310144  RH  058%=      5-min Rain = 0
KSP2 251424Z 25010KT 23/15 A3003 RMK A01 T02310145  RH  058%=      5-min Rain = 0
KSP2 251425Z 24008KT 23/15 A3003 RMK A01 T02310149  RH  060%=      5-min Rain = 0
KSP2 251426Z 24010KT 23/15 A3004 RMK A01 T02330147  RH  058%=      5-min Rain = 0
KSP2 251427Z 25009KT 23/15 A3004 RMK A01 T02330147  RH  058%=      5-min Rain = 0
KSP2 251428Z 25009KT 23/15 A3004 RMK A01 T02340150  RH  059%=      5-min Rain = 0
KSP2 251429Z 25011KT 24/15 A3004 RMK A01 T02350149  RH  058%=      5-min Rain = 0
KSP2 251430Z 26008KT 24/15 A3004 RMK A01 T02360149  RH  058%=      5-min Rain = 0
KSP2 251431Z 23010KT 24/15 A3004 RMK A01 T02360148  RH  058%=      5-min Rain = 0
KSP2 251432Z 24009KT 24/15 A3004 RMK A01 T02360148  RH  058%=      5-min Rain = 0
KSP2 251433Z 25012KT 24/15 A3004 RMK A01 T02370148  RH  057%=      5-min Rain = 0
KSP2 251434Z 25012KT 24/15 A3004 RMK A01 T02370147  RH  057%=      5-min Rain = 0
KSP2 251435Z 24011KT 24/15 A3004 RMK A01 T02370149  RH  058%=      5-min Rain = 0
KSP2 251436Z 25012KT 24/15 A3004 RMK A01 T02370149  RH  057%=      5-min Rain = 0
KSP2 251437Z 24012KT 24/15 A3004 RMK A01 T02370148  RH  057%=      5-min Rain = 0
KSP2 251438Z 25011KT 24/15 A3004 RMK A01 T02380150  RH  058%=      5-min Rain = 0
KSP2 251439Z 25011KT 24/15 A3004 RMK A01 T02390148  RH  057%=      5-min Rain = 0
KSP2 251440Z 23009KT 24/15 A3004 RMK A01 T02390150  RH  058%=      5-min Rain = 0
KSP2 251441Z 23011KT 24/15 A3004 RMK A01 T02390153  RH  058%=      5-min Rain = 0
KSP2 251442Z 23010KT 24/15 A3004 RMK A01 T02400153  RH  058%=      5-min Rain = 0
KSP2 251443Z 23010KT 24/15 A3004 RMK A01 T02400151  RH  057%=      5-min Rain = 0
KSP2 251444Z 22009KT 24/15 A3004 RMK A01 T02400152  RH  058%=      5-min Rain = 0
KSP2 251445Z 23007KT 24/16 A3004 RMK A01 T02400155  RH  059%=      5-min Rain = 0
KSP2 251446Z 23009G14KT 24/16 A3004 RMK A01 T02410156  RH  059%=      5-min Rain = 0
KSP2 251447Z 23011KT 24/16 A3004 RMK A01 T02430155  RH  058%=      5-min Rain = 0
KSP2 251448Z 23011KT 24/15 A3004 RMK A01 T02430153  RH  057%=      5-min Rain = 0
KSP2 251449Z 23012KT 24/15 A3004 RMK A01 T02430154  RH  057%=      5-min Rain = 0
KSP2 251450Z 23008KT 24/15 A3004 RMK A01 T02430154  RH  057%=      5-min Rain = 0
KSP2 251451Z 23009KT 24/16 A3004 RMK A01 T02440158  RH  059%=      5-min Rain = 0
KSP2 251452Z 22010KT 24/16 A3004 RMK A01 T02440156  RH  058%=      5-min Rain = 0
KSP2 251453Z 21009KT 25/16 A3004 RMK A01 T02450158  RH  058%=      5-min Rain = 0
KSP2 251454Z 22007KT 25/16 A3004 RMK A01 T02450161  RH  059%=      5-min Rain = 0
KSP2 251455Z 22010G16KT 25/16 A3004 RMK A01 T02470162  RH  059%=      5-min Rain = 0
KSP2 251456Z 22012KT 25/16 A3004 RMK A01 T02480160  RH  058%=      5-min Rain = 0
KSP2 251457Z 22010KT 25/16 A3004 RMK A01 T02480160  RH  058%=      5-min Rain = 0
KSP2 251458Z 22011KT 25/16 A3004 RMK A01 T02470158  RH  058%=      5-min Rain = 0
KSP2 251459Z 22012KT 25/16 A3004 RMK A01 T02470160  RH  058%=      5-min Rain = 0
KSP2 251500Z 23009KT 25/16 A3004 RMK A01 T02460159  RH  058%=      5-min Rain = 0
KSP2 251501Z 22010KT 25/16 A3004 RMK A01 T02460161  RH  059%=      5-min Rain = 0
KSP2 251502Z 22011G16KT 25/16 A3004 RMK A01 T02470162  RH  059%=      5-min Rain = 0
KSP2 251503Z 21014KT 25/16 A3004 RMK A01 T02480160  RH  058%=      5-min Rain = 0
KSP2 251504Z 20012KT 25/16 A3004 RMK A01 T02480160  RH  058%=      5-min Rain = 0
KSP2 251505Z 20012KT 25/16 A3004 RMK A01 T02480160  RH  058%=      5-min Rain = 0
KSP2 251506Z 21012KT 25/16 A3004 RMK A01 T02480163  RH  059%=      5-min Rain = 0
KSP2 251507Z 22013KT 25/16 A3004 RMK A01 T02490159  RH  058%=      5-min Rain = 0
KSP2 251508Z 22010KT 25/16 A3004 RMK A01 T02480159  RH  058%=      5-min Rain = 0
KSP2 251509Z 23011KT 25/16 A3004 RMK A01 T02480160  RH  058%=      5-min Rain = 0
KSP2 251510Z 23011KT 25/16 A3005 RMK A01 T02470159  RH  058%=      5-min Rain = 0
KSP2 251511Z 22008KT 25/16 A3005 RMK A01 T02470159  RH  058%=      5-min Rain = 0
KSP2 251512Z 22007KT 25/16 A3005 RMK A01 T02470161  RH  059%=      5-min Rain = 0
KSP2 251513Z 22010KT 25/16 A3005 RMK A01 T02490164  RH  059%=      5-min Rain = 0
KSP2 251514Z 21009KT 25/16 A3005 RMK A01 T02500162  RH  058%=      5-min Rain = 0
KSP2 251515Z 21011KT 25/16 A3005 RMK A01 T02500163  RH  058%=      5-min Rain = 0
KSP2 251516Z 22009KT 25/16 A3005 RMK A01 T02510163  RH  058%=      5-min Rain = 0
KSP2 251517Z 20008KT 25/17 A3004 RMK A01 T02520166  RH  059%=      5-min Rain = 0
KSP2 251518Z 23008KT 25/17 A3004 RMK A01 T02530170  RH  060%=      5-min Rain = 0
KSP2 251519Z 22007KT 26/17 A3004 RMK A01 T02550167  RH  058%=      5-min Rain = 0
KSP2 251520Z 21008KT 26/17 A3004 RMK A01 T02560170  RH  059%=      5-min Rain = 0
KSP2 251521Z 21009KT 26/17 A3004 RMK A01 T02570167  RH  058%=      5-min Rain = 0
KSP2 251522Z 23011G17KT 26/17 A3005 RMK A01 T02570166  RH  057%=      5-min Rain = 0
KSP2 251523Z 22011KT 26/16 A3005 RMK A01 T02560163  RH  056%=      5-min Rain = 0
KSP2 251524Z 21014KT 26/16 A3005 RMK A01 T02550164  RH  057%=      5-min Rain = 0
KSP2 251525Z 21010KT 25/16 A3004 RMK A01 T02540163  RH  057%=      5-min Rain = 0
KSP2 251526Z 21012KT 25/17 A3004 RMK A01 T02540165  RH  058%=      5-min Rain = 0
KSP2 251527Z 20013KT 25/16 A3004 RMK A01 T02540163  RH  057%=      5-min Rain = 0
KSP2 251528Z 21010KT 25/16 A3004 RMK A01 T02540163  RH  057%=      5-min Rain = 0
KSP2 251529Z 21010KT 25/17 A3004 RMK A01 T02540166  RH  058%=      5-min Rain = 0
KSP2 251530Z 21011KT 26/16 A3004 RMK A01 T02550164  RH  057%=      5-min Rain = 0
KSP2 251531Z 21012KT 26/16 A3004 RMK A01 T02550162  RH  057%=      5-min Rain = 0
KSP2 251532Z 21010KT 25/16 A3004 RMK A01 T02540163  RH  057%=      5-min Rain = 0
KSP2 251533Z 20009KT 26/17 A3004 RMK A01 T02550169  RH  059%=      5-min Rain = 0
KSP2 251534Z 21011KT 26/17 A3004 RMK A01 T02570165  RH  057%=      5-min Rain = 0
KSP2 251535Z 21013KT 26/16 A3004 RMK A01 T02570163  RH  056%=      5-min Rain = 0
KSP2 251536Z 22010KT 26/16 A3004 RMK A01 T02570164  RH  056%=      5-min Rain = 0
KSP2 251537Z 22011KT 26/16 A3004 RMK A01 T02560162  RH  056%=      5-min Rain = 0
KSP2 251538Z 21010KT 26/17 A3004 RMK A01 T02560166  RH  058%=      5-min Rain = 0
KSP2 251539Z 20010KT 26/17 A3004 RMK A01 T02570165  RH  057%=      5-min Rain = 0
KSP2 251540Z 20009KT 26/17 A3004 RMK A01 T02580166  RH  057%=      5-min Rain = 0
KSP2 251541Z 21008KT 26/17 A3004 RMK A01 T02590171  RH  059%=      5-min Rain = 0
KSP2 251542Z 22010KT 26/17 A3004 RMK A01 T02610172  RH  058%=      5-min Rain = 0
KSP2 251543Z 20011KT 26/17 A3004 RMK A01 T02630169  RH  056%=      5-min Rain = 0
KSP2 251544Z 21011KT 26/17 A3004 RMK A01 T02630167  RH  055%=      5-min Rain = 0
KSP2 251545Z 22008KT 26/17 A3004 RMK A01 T02620168  RH  056%=      5-min Rain = 0
KSP2 251546Z 23007KT 26/17 A3004 RMK A01 T02620168  RH  056%=      5-min Rain = 0
KSP2 251547Z 23009KT 26/17 A3004 RMK A01 T02630171  RH  057%=      5-min Rain = 0
KSP2 251548Z 23010KT 26/17 A3004 RMK A01 T02640165  RH  055%=      5-min Rain = 0
KSP2 251549Z 22011KT 26/17 A3004 RMK A01 T02620168  RH  056%=      5-min Rain = 0
KSP2 251550Z 22011KT 26/17 A3004 RMK A01 T02630166  RH  055%=      5-min Rain = 0
KSP2 251551Z 22011KT 26/17 A3004 RMK A01 T02620165  RH  055%=      5-min Rain = 0
KSP2 251552Z 21012KT 26/17 A3004 RMK A01 T02620168  RH  056%=      5-min Rain = 0
KSP2 251553Z 22011KT 26/17 A3003 RMK A01 T02630165  RH  055%=      5-min Rain = 0
KSP2 251554Z 22010KT 26/17 A3003 RMK A01 T02640171  RH  057%=      5-min Rain = 0
KSP2 251555Z 22009KT 27/17 A3003 RMK A01 T02650167  RH  055%=      5-min Rain = 0
KSP2 251556Z 23008KT 27/17 A3003 RMK A01 T02650168  RH  055%=      5-min Rain = 0
KSP2 251557Z 23012KT 27/17 A3003 RMK A01 T02650166  RH  055%=      5-min Rain = 0
KSP2 251558Z 23012KT 27/17 A3003 RMK A01 T02650165  RH  054%=      5-min Rain = 0
KSP2 251559Z 23011KT 26/16 A3003 RMK A01 T02640164  RH  054%=      5-min Rain = 0
KSP2 251600Z 23012KT 26/17 A3003 RMK A01 T02640165  RH  055%=      5-min Rain = 0
KSP2 251601Z 23010KT 26/16 A3003 RMK A01 T02640164  RH  054%=      5-min Rain = 0
KSP2 251602Z 25009KT 27/17 A3003 RMK A01 T02650167  RH  055%=      5-min Rain = 0
KSP2 251603Z 24009KT 27/17 A3003 RMK A01 T02660166  RH  054%=      5-min Rain = 0
KSP2 251604Z 22009KT 27/17 A3003 RMK A01 T02660168  RH  055%=      5-min Rain = 0
KSP2 251605Z 22011KT 27/17 A3003 RMK A01 T02670167  RH  054%=      5-min Rain = 0
KSP2 251606Z 23010KT 27/17 A3003 RMK A01 T02660165  RH  054%=      5-min Rain = 0
KSP2 251607Z 23007KT 27/17 A3003 RMK A01 T02650169  RH  055%=      5-min Rain = 0
KSP2 251608Z 23011KT 27/17 A3003 RMK A01 T02660171  RH  056%=      5-min Rain = 0
KSP2 251609Z 24012KT 27/17 A3003 RMK A01 T02670167  RH  054%=      5-min Rain = 0
KSP2 251610Z 23009KT 27/17 A3003 RMK A01 T02670170  RH  055%=      5-min Rain = 0
KSP2 251611Z 23010KT 27/17 A3003 RMK A01 T02670169  RH  055%=      5-min Rain = 0
KSP2 251612Z 21010KT 27/17 A3003 RMK A01 T02680168  RH  054%=      5-min Rain = 0
KSP2 251613Z 22010KT 27/17 A3003 RMK A01 T02680171  RH  055%=      5-min Rain = 0
KSP2 251614Z 21012KT 27/17 A3003 RMK A01 T02690171  RH  055%=      5-min Rain = 0
KSP2 251615Z 23009KT 27/17 A3003 RMK A01 T02700169  RH  054%=      5-min Rain = 0
KSP2 251616Z 21008KT 27/17 A3003 RMK A01 T02690172  RH  055%=      5-min Rain = 0
KSP2 251617Z 21010KT 27/17 A3003 RMK A01 T02690174  RH  056%=      5-min Rain = 0
KSP2 251618Z 22009KT 27/17 A3003 RMK A01 T02720174  RH  055%=      5-min Rain = 0
KSP2 251619Z 24008KT 28/18 A3004 RMK A01 T02750175  RH  055%=      5-min Rain = 0
KSP2 251620Z 22007KT 28/17 A3004 RMK A01 T02760173  RH  053%=      5-min Rain = 0
KSP2 251621Z 21008KT 28/17 A3004 RMK A01 T02760172  RH  053%=      5-min Rain = 0
KSP2 251622Z 21010KT 28/18 A3004 RMK A01 T02760177  RH  055%=      5-min Rain = 0
KSP2 251623Z 22010KT 28/17 A3004 RMK A01 T02770174  RH  054%=      5-min Rain = 0
KSP2 251624Z 21007KT 28/17 A3004 RMK A01 T02760170  RH  052%=      5-min Rain = 0
KSP2 251625Z 21008KT 28/18 A3004 RMK A01 T02760176  RH  054%=      5-min Rain = 0
KSP2 251626Z 21007KT 28/18 A3004 RMK A01 T02760178  RH  055%=      5-min Rain = 0
KSP2 251627Z 20010KT 28/17 A3004 RMK A01 T02780173  RH  053%=      5-min Rain = 0
KSP2 251628Z 21009KT 28/17 A3004 RMK A01 T02770172  RH  053%=      5-min Rain = 0
KSP2 251629Z 21009KT 28/17 A3004 RMK A01 T02760173  RH  054%=      5-min Rain = 0
KSP2 251630Z 23008KT 28/17 A3004 RMK A01 T02760170  RH  052%=      5-min Rain = 0
KSP2 251631Z 20009KT 28/18 A3004 RMK A01 T02770176  RH  054%=      5-min Rain = 0
KSP2 251632Z 20008KT 28/18 A3004 RMK A01 T02770175  RH  054%=      5-min Rain = 0
KSP2 251633Z 22007KT 28/18 A3004 RMK A01 T02780178  RH  054%=      5-min Rain = 0
KSP2 251634Z 21008KT 28/18 A3004 RMK A01 T02790175  RH  053%=      5-min Rain = 0
KSP2 251635Z 21011KT 28/18 A3004 RMK A01 T02800176  RH  053%=      5-min Rain = 0
KSP2 251636Z 20011KT 28/17 A3004 RMK A01 T02790174  RH  053%=      5-min Rain = 0
KSP2 251637Z 19007KT 28/18 A3004 RMK A01 T02780180  RH  055%=      5-min Rain = 0
KSP2 251638Z 20007KT 28/18 A3004 RMK A01 T02800182  RH  055%=      5-min Rain = 0
KSP2 251639Z 19010KT 28/18 A3003 RMK A01 T02810177  RH  053%=      5-min Rain = 0
KSP2 251640Z 19008KT 28/17 A3003 RMK A01 T02790173  RH  053%=      5-min Rain = 0
KSP2 251641Z 19008KT 28/18 A3003 RMK A01 T02780177  RH  054%=      5-min Rain = 0
KSP2 251642Z 20011KT 28/18 A3003 RMK A01 T02780179  RH  055%=      5-min Rain = 0
KSP2 251643Z 20009KT 28/18 A3003 RMK A01 T02800177  RH  054%=      5-min Rain = 0
KSP2 251644Z 20009KT 28/18 A3003 RMK A01 T02800178  RH  054%=      5-min Rain = 0
KSP2 251645Z 21007KT 28/18 A3003 RMK A01 T02800179  RH  054%=      5-min Rain = 0
KSP2 251646Z 22009KT 28/18 A3003 RMK A01 T02820179  RH  054%=      5-min Rain = 0
KSP2 251647Z 21009KT 28/18 A3003 RMK A01 T02820176  RH  053%=      5-min Rain = 0
KSP2 251648Z 22006KT 28/18 A3003 RMK A01 T02830179  RH  053%=      5-min Rain = 0
KSP2 251649Z 21006KT 29/18 A3003 RMK A01 T02860179  RH  052%=      5-min Rain = 0
KSP2 251650Z 20006KT 29/18 A3003 RMK A01 T02860179  RH  052%=      5-min Rain = 0
KSP2 251651Z 21009KT 29/18 A3003 RMK A01 T02860180  RH  053%=      5-min Rain = 0
KSP2 251652Z 23010KT 29/18 A3003 RMK A01 T02870177  RH  051%=      5-min Rain = 0
KSP2 251653Z 24009KT 28/18 A3003 RMK A01 T02840175  RH  052%=      5-min Rain = 0
KSP2 251654Z 24007KT 28/17 A3003 RMK A01 T02820172  RH  051%=      5-min Rain = 0
KSP2 251655Z 23006KT 28/18 A3003 RMK A01 T02810179  RH  054%=      5-min Rain = 0
KSP2 251656Z 23008KT 28/18 A3003 RMK A01 T02820179  RH  053%=      5-min Rain = 0
KSP2 251657Z 22006KT 28/17 A3003 RMK A01 T02840173  RH  051%=      5-min Rain = 0
KSP2 251658Z 20008KT 28/18 A3003 RMK A01 T02840180  RH  053%=      5-min Rain = 0
KSP2 251659Z 20006KT 29/18 A3003 RMK A01 T02850176  RH  052%=      5-min Rain = 0
KSP2 251700Z 21007KT 29/18 A3003 RMK A01 T02850178  RH  052%=      5-min Rain = 0
KSP2 251701Z 21009KT 29/18 A3003 RMK A01 T02860179  RH  052%=      5-min Rain = 0
KSP2 251702Z 22006KT 29/18 A3003 RMK A01 T02870179  RH  052%=      5-min Rain = 0
KSP2 251703Z 23005KT 29/18 A3003 RMK A01 T02870183  RH  053%=      5-min Rain = 0
KSP2 251704Z 20009KT 29/18 A3003 RMK A01 T02880183  RH  053%=      5-min Rain = 0
KSP2 251705Z 20009KT 29/18 A3003 RMK A01 T02900177  RH  051%=      5-min Rain = 0
KSP2 251706Z 21005KT 29/18 A3003 RMK A01 T02890179  RH  051%=      5-min Rain = 0
KSP2 251707Z 18006KT 29/18 A3003 RMK A01 T02890181  RH  052%=      5-min Rain = 0
KSP2 251708Z 20006KT 29/18 A3003 RMK A01 T02890179  RH  051%=      5-min Rain = 0
KSP2 251709Z 20011KT 29/18 A3004 RMK A01 T02900177  RH  051%=      5-min Rain = 0
KSP2 251710Z 21009KT 29/18 A3004 RMK A01 T02900177  RH  051%=      5-min Rain = 0
KSP2 251711Z 20005KT 29/18 A3004 RMK A01 T02900176  RH  050%=      5-min Rain = 0
KSP2 251712Z 22006KT 29/18 A3004 RMK A01 T02890179  RH  051%=      5-min Rain = 0
KSP2 251713Z 19008KT 29/18 A3004 RMK A01 T02900180  RH  052%=      5-min Rain = 0
KSP2 251714Z 19007KT 29/18 A3004 RMK A01 T02910177  RH  050%=      5-min Rain = 0
KSP2 251715Z 20007KT 29/18 A3004 RMK A01 T02910180  RH  051%=      5-min Rain = 0
KSP2 251716Z 24007KT 29/18 A3004 RMK A01 T02900175  RH  050%=      5-min Rain = 0
KSP2 251717Z 23007KT 29/18 A3004 RMK A01 T02900179  RH  051%=      5-min Rain = 0
KSP2 251718Z 23007KT 29/18 A3003 RMK A01 T02910181  RH  051%=      5-min Rain = 0
KSP2 251719Z 23008KT 29/18 A3003 RMK A01 T02930180  RH  051%=      5-min Rain = 0
KSP2 251720Z 23008KT 29/18 A3003 RMK A01 T02940178  RH  050%=      5-min Rain = 0
KSP2 251721Z 24006KT 29/18 A3003 RMK A01 T02930179  RH  050%=      5-min Rain = 0
KSP2 251722Z 24007G12KT 29/18 A3003 RMK A01 T02930179  RH  050%=      5-min Rain = 0
KSP2 251723Z 24008KT 29/18 A3003 RMK A01 T02930176  RH  049%=      5-min Rain = 0
KSP2 251724Z 24006KT 29/18 A3003 RMK A01 T02940177  RH  049%=      5-min Rain = 0
KSP2 251725Z 21007KT 29/18 A3003 RMK A01 T02930182  RH  051%=      5-min Rain = 0
KSP2 251726Z 19006KT 29/18 A3003 RMK A01 T02940182  RH  051%=      5-min Rain = 0
KSP2 251727Z 20005KT 30/19 A3003 RMK A01 T02970186  RH  051%=      5-min Rain = 0
KSP2 251728Z 22008KT 30/19 A3003 RMK A01 T02990186  RH  051%=      5-min Rain = 0
KSP2 251729Z 22007KT 30/18 A3003 RMK A01 T03000180  RH  048%=      5-min Rain = 0
KSP2 251730Z 22006KT 30/18 A3003 RMK A01 T02980180  RH  049%=      5-min Rain = 0
KSP2 251731Z 21006KT 30/18 A3003 RMK A01 T02980182  RH  050%=      5-min Rain = 0
KSP2 251732Z 25007KT 30/18 A3003 RMK A01 T02970180  RH  049%=      5-min Rain = 0
KSP2 251733Z 21004KT 30/18 A3003 RMK A01 T02970179  RH  049%=      5-min Rain = 0
KSP2 251734Z 20009KT 30/18 A3003 RMK A01 T02970181  RH  050%=      5-min Rain = 0
KSP2 251735Z 19008KT 30/18 A3003 RMK A01 T02970179  RH  049%=      5-min Rain = 0
KSP2 251736Z 19005KT 30/18 A3003 RMK A01 T02960178  RH  049%=      5-min Rain = 0
KSP2 251737Z 21006KT 30/18 A3003 RMK A01 T02960181  RH  050%=      5-min Rain = 0
KSP2 251738Z 21009KT 30/18 A3003 RMK A01 T02970184  RH  051%=      5-min Rain = 0
KSP2 251739Z 21008KT 30/18 A3003 RMK A01 T02990181  RH  049%=      5-min Rain = 0
KSP2 251740Z 21008KT 30/18 A3003 RMK A01 T03000177  RH  048%=      5-min Rain = 0
KSP2 251741Z 22004KT 30/18 A3003 RMK A01 T03000180  RH  049%=      5-min Rain = 0
KSP2 251742Z 20007KT 30/18 A3003 RMK A01 T03000181  RH  049%=      5-min Rain = 0
KSP2 251743Z 21009KT 30/18 A3003 RMK A01 T03010177  RH  047%=      5-min Rain = 0
KSP2 251744Z 21007KT 30/18 A3003 RMK A01 T03020178  RH  047%=      5-min Rain = 0
KSP2 251745Z 23005KT 30/18 A3003 RMK A01 T03020178  RH  048%=      5-min Rain = 0
KSP2 251746Z 23004KT 30/18 A3003 RMK A01 T03010179  RH  048%=      5-min Rain = 0
KSP2 251747Z 21005KT 30/18 A3003 RMK A01 T03000177  RH  048%=      5-min Rain = 0
KSP2 251748Z 19007KT 30/18 A3003 RMK A01 T02990180  RH  049%=      5-min Rain = 0
KSP2 251749Z 19008KT 30/18 A3003 RMK A01 T02990181  RH  049%=      5-min Rain = 0
KSP2 251750Z 21007KT 30/18 A3003 RMK A01 T03010177  RH  047%=      5-min Rain = 0
KSP2 251751Z 20005KT 30/18 A3003 RMK A01 T03020183  RH  049%=      5-min Rain = 0
KSP2 251752Z 21006KT 30/18 A3003 RMK A01 T03040176  RH  046%=      5-min Rain = 0
KSP2 251753Z 23004KT 30/18 A3003 RMK A01 T03040179  RH  047%=      5-min Rain = 0
KSP2 251754Z 19004KT 30/18 A3003 RMK A01 T03030180  RH  048%=      5-min Rain = 0
KSP2 251755Z 20008KT 30/19 A3003 RMK A01 T03040185  RH  049%=      5-min Rain = 0
KSP2 251756Z 19007KT 30/18 A3003 RMK A01 T03040181  RH  048%=      5-min Rain = 0
KSP2 251757Z 20004KT 30/18 A3003 RMK A01 T03040184  RH  049%=      5-min Rain = 0
KSP2 251758Z 20004KT 30/18 A3003 RMK A01 T03040177  RH  047%=      5-min Rain = 0
KSP2 251759Z 18004KT 30/18 A3003 RMK A01 T03020175  RH  047%=      5-min Rain = 0
KSP2 251800Z 19008KT 30/18 A3003 RMK A01 T03010180  RH  048%=      5-min Rain = 0
KSP2 251801Z 24006KT 30/18 A3003 RMK A01 T03020181  RH  048%=      5-min Rain = 0
KSP2 251802Z 24007KT 30/18 A3003 RMK A01 T03030178  RH  047%=      5-min Rain = 0
KSP2 251803Z 21007KT 30/18 A3003 RMK A01 T03030178  RH  047%=      5-min Rain = 0
KSP2 251804Z 18006KT 30/18 A3003 RMK A01 T03040183  RH  049%=      5-min Rain = 0
KSP2 251805Z 18010KT 31/18 A3003 RMK A01 T03070181  RH  047%=      5-min Rain = 0
KSP2 251806Z 18010KT 31/18 A3003 RMK A01 T03080178  RH  046%=      5-min Rain = 0
KSP2 251807Z 17006KT 31/18 A3003 RMK A01 T03080176  RH  045%=      5-min Rain = 0
KSP2 251808Z 16005KT 31/18 A3002 RMK A01 T03070182  RH  047%=      5-min Rain = 0
KSP2 251809Z 19007KT 31/18 A3003 RMK A01 T03090179  RH  046%=      5-min Rain = 0
KSP2 251810Z 21007KT 31/17 A3003 RMK A01 T03090171  RH  044%=      5-min Rain = 0
KSP2 251811Z 21005KT 31/17 A3002 RMK A01 T03080174  RH  045%=      5-min Rain = 0
KSP2 251812Z 22004KT 31/18 A3002 RMK A01 T03070181  RH  047%=      5-min Rain = 0
KSP2 251813Z 21006KT 31/18 A3002 RMK A01 T03070176  RH  046%=      5-min Rain = 0
KSP2 251814Z 20008KT 31/18 A3002 RMK A01 T03070177  RH  046%=      5-min Rain = 0
KSP2 251815Z 19007KT 31/18 A3002 RMK A01 T03070181  RH  047%=      5-min Rain = 0
KSP2 251816Z 19007KT 31/18 A3002 RMK A01 T03090183  RH  047%=      5-min Rain = 0
KSP2 251817Z 19008KT 31/18 A3002 RMK A01 T03110180  RH  045%=      5-min Rain = 0
KSP2 251818Z 19008KT 31/18 A3002 RMK A01 T03110180  RH  045%=      5-min Rain = 0
KSP2 251819Z 19006KT 31/18 A3002 RMK A01 T03110178  RH  045%=      5-min Rain = 0
KSP2 251820Z 16005KT 31/18 A3002 RMK A01 T03090180  RH  046%=      5-min Rain = 0
KSP2 251821Z 16004KT 31/18 A3002 RMK A01 T03090182  RH  047%=      5-min Rain = 0
KSP2 251822Z 17005KT 31/18 A3002 RMK A01 T03090177  RH  045%=      5-min Rain = 0
KSP2 251823Z 20005KT 31/18 A3002 RMK A01 T03090183  RH  047%=      5-min Rain = 0
KSP2 251824Z 20009KT 31/18 A3002 RMK A01 T03100183  RH  047%=      5-min Rain = 0
KSP2 251825Z 20010KT 31/18 A3002 RMK A01 T03120183  RH  046%=      5-min Rain = 0
KSP2 251826Z 21007KT 31/19 A3002 RMK A01 T03130185  RH  047%=      5-min Rain = 0
KSP2 251827Z 24007KT 31/19 A3002 RMK A01 T03130185  RH  047%=      5-min Rain = 0
KSP2 251828Z 22005KT 31/18 A3002 RMK A01 T03120177  RH  045%=      5-min Rain = 0
KSP2 251829Z 21005KT 31/19 A3002 RMK A01 T03090185  RH  048%=      5-min Rain = 0
KSP2 251830Z 20009KT 31/17 A3002 RMK A01 T03110170  RH  043%=      5-min Rain = 0
KSP2 251831Z 20011KT 31/17 A3002 RMK A01 T03130170  RH  042%=      5-min Rain = 0
KSP2 251832Z 21010KT 31/18 A3002 RMK A01 T03130176  RH  044%=      5-min Rain = 0
KSP2 251833Z 21009KT 31/18 A3002 RMK A01 T03120178  RH  045%=      5-min Rain = 0
KSP2 251834Z 18008KT 31/18 A3002 RMK A01 T03110179  RH  045%=      5-min Rain = 0
KSP2 251835Z 18008KT 31/18 A3002 RMK A01 T03110175  RH  044%=      5-min Rain = 0
KSP2 251836Z 18006KT 31/18 A3002 RMK A01 T03110177  RH  045%=      5-min Rain = 0
KSP2 251837Z 18006KT 31/18 A3002 RMK A01 T03110181  RH  046%=      5-min Rain = 0
KSP2 251838Z 19007KT 31/18 A3002 RMK A01 T03130177  RH  044%=      5-min Rain = 0
KSP2 251839Z 18009KT 31/18 A3002 RMK A01 T03140180  RH  045%=      5-min Rain = 0
KSP2 251840Z 18006KT 32/18 A3002 RMK A01 T03150184  RH  046%=      5-min Rain = 0
KSP2 251841Z 17007KT 32/19 A3002 RMK A01 T03160185  RH  046%=      5-min Rain = 0
KSP2 251842Z 18004KT 32/18 A3002 RMK A01 T03160179  RH  044%=      5-min Rain = 0
KSP2 251843Z 20007KT 32/18 A3002 RMK A01 T03150178  RH  044%=      5-min Rain = 0
KSP2 251844Z 20007KT 32/17 A3001 RMK A01 T03170165  RH  040%=      5-min Rain = 0
KSP2 251845Z 23007KT 32/16 A3001 RMK A01 T03190164  RH  040%=      5-min Rain = 0
KSP2 251846Z 21008KT 32/17 A3001 RMK A01 T03190172  RH  041%=      5-min Rain = 0
KSP2 251847Z 20008KT 32/16 A3001 RMK A01 T03190164  RH  039%=      5-min Rain = 0
KSP2 251848Z 18007KT 32/17 A3001 RMK A01 T03200168  RH  040%=      5-min Rain = 0
KSP2 251849Z 19009KT 32/17 A3001 RMK A01 T03210166  RH  040%=      5-min Rain = 0
KSP2 251850Z 20011KT 32/16 A3001 RMK A01 T03220158  RH  037%=      5-min Rain = 0
KSP2 251851Z 20010KT 32/17 A3002 RMK A01 T03220166  RH  039%=      5-min Rain = 0
KSP2 251852Z 21008KT 32/17 A3001 RMK A01 T03210171  RH  041%=      5-min Rain = 0
KSP2 251853Z 20006KT 32/17 A3001 RMK A01 T03190169  RH  041%=      5-min Rain = 0
KSP2 251854Z 19004KT 32/17 A3001 RMK A01 T03170172  RH  042%=      5-min Rain = 0
KSP2 251855Z 16009KT 32/17 A3001 RMK A01 T03180174  RH  042%=      5-min Rain = 0
KSP2 251856Z 15009KT 32/17 A3001 RMK A01 T03180170  RH  041%=      5-min Rain = 0
KSP2 251857Z 16008KT 32/17 A3001 RMK A01 T03180169  RH  041%=      5-min Rain = 0
KSP2 251858Z 17011KT 32/16 A3001 RMK A01 T03180164  RH  039%=      5-min Rain = 0
KSP2 251859Z 17011KT 32/16 A3001 RMK A01 T03200158  RH  038%=      5-min Rain = 0
KSP2 251900Z 18008G13KT 32/16 A3001 RMK A01 T03210159  RH  038%=      5-min Rain = 0
KSP2 251901Z 19008G13KT 32/16 A3001 RMK A01 T03190163  RH  039%=      5-min Rain = 0
KSP2 251902Z 19011KT 32/16 A3001 RMK A01 T03200160  RH  038%=      5-min Rain = 0
KSP2 251903Z 19008KT 32/15 A3001 RMK A01 T03220154  RH  036%=      5-min Rain = 0
KSP2 251904Z 18010G16KT 32/17 A3001 RMK A01 T03230167  RH  039%=      5-min Rain = 0
KSP2 251905Z 17011G16KT 32/16 A3001 RMK A01 T03230156  RH  037%=      5-min Rain = 0
KSP2 251906Z 18008KT 32/16 A3001 RMK A01 T03210159  RH  038%=      5-min Rain = 0
KSP2 251907Z 17009KT 32/17 A3001 RMK A01 T03210166  RH  039%=      5-min Rain = 0
KSP2 251908Z 17011KT 32/15 A3001 RMK A01 T03210152  RH  036%=      5-min Rain = 0
KSP2 251909Z 16009KT 32/16 A3001 RMK A01 T03220161  RH  038%=      5-min Rain = 0
KSP2 251910Z 16012KT 32/16 A3001 RMK A01 T03220162  RH  038%=      5-min Rain = 0
KSP2 251911Z 16010KT 32/15 A3001 RMK A01 T03220154  RH  036%=      5-min Rain = 0
KSP2 251912Z 17010G16KT 32/15 A3001 RMK A01 T03200149  RH  036%=      5-min Rain = 0
KSP2 251913Z 17012KT 32/15 A3001 RMK A01 T03220150  RH  035%=      5-min Rain = 0
KSP2 251914Z 18009KT 32/15 A3001 RMK A01 T03230148  RH  035%=      5-min Rain = 0
KSP2 251915Z 18008KT 32/16 A3001 RMK A01 T03230158  RH  037%=      5-min Rain = 0
KSP2 251916Z 18006G11KT 32/16 A3001 RMK A01 T03240157  RH  037%=      5-min Rain = 0
KSP2 251917Z 19013KT 33/16 A3001 RMK A01 T03250155  RH  036%=      5-min Rain = 0
KSP2 251918Z 18011KT 33/16 A3001 RMK A01 T03250156  RH  036%=      5-min Rain = 0
KSP2 251919Z 17010KT 33/16 A3001 RMK A01 T03260157  RH  036%=      5-min Rain = 0
KSP2 251920Z 17009KT 33/16 A3001 RMK A01 T03270157  RH  036%=      5-min Rain = 0
KSP2 251921Z 17011KT 33/14 A3001 RMK A01 T03280144  RH  033%=      5-min Rain = 0
KSP2 251922Z 17008KT 33/15 A3001 RMK A01 T03260149  RH  034%=      5-min Rain = 0
KSP2 251923Z 18006KT 33/16 A3001 RMK A01 T03260159  RH  037%=      5-min Rain = 0
KSP2 251924Z 17009G16KT 33/16 A3001 RMK A01 T03260164  RH  038%=      5-min Rain = 0
KSP2 251925Z 17011KT 33/14 A3001 RMK A01 T03280138  RH  032%=      5-min Rain = 0
KSP2 251926Z 17010KT 33/13 A3001 RMK A01 T03290133  RH  031%=      5-min Rain = 0
KSP2 251927Z 18009KT 33/15 A3001 RMK A01 T03270146  RH  033%=      5-min Rain = 0
KSP2 251928Z 19011KT 33/14 A3001 RMK A01 T03270142  RH  033%=      5-min Rain = 0
KSP2 251929Z 18012KT 33/14 A3001 RMK A01 T03280141  RH  032%=      5-min Rain = 0
KSP2 251930Z 18012KT 33/15 A3001 RMK A01 T03280148  RH  034%=      5-min Rain = 0
KSP2 251931Z 19008KT 33/15 A3001 RMK A01 T03270154  RH  035%=      5-min Rain = 0
KSP2 251932Z 19008KT 33/16 A3001 RMK A01 T03270156  RH  036%=      5-min Rain = 0
KSP2 251933Z 17009G14KT 33/15 A3001 RMK A01 T03270152  RH  035%=      5-min Rain = 0
KSP2 251934Z 16012KT 33/16 A3001 RMK A01 T03270157  RH  036%=      5-min Rain = 0
KSP2 251935Z 18011KT 33/16 A3001 RMK A01 T03280157  RH  036%=      5-min Rain = 0
KSP2 251936Z 18009KT 33/16 A3001 RMK A01 T03270158  RH  036%=      5-min Rain = 0
KSP2 251937Z 17007KT 33/15 A3001 RMK A01 T03250153  RH  035%=      5-min Rain = 0
KSP2 251938Z 18007KT 32/15 A3001 RMK A01 T03240154  RH  036%=      5-min Rain = 0
KSP2 251939Z 19009KT 32/16 A3001 RMK A01 T03240160  RH  037%=      5-min Rain = 0
KSP2 251940Z 19011KT 33/16 A3001 RMK A01 T03270164  RH  038%=      5-min Rain = 0
KSP2 251941Z 20013KT 33/16 A3001 RMK A01 T03280156  RH  035%=      5-min Rain = 0
KSP2 251942Z 19011KT 33/16 A3001 RMK A01 T03270159  RH  036%=      5-min Rain = 0
KSP2 251943Z 18012KT 33/16 A3001 RMK A01 T03260156  RH  036%=      5-min Rain = 0
KSP2 251944Z 17009KT 33/16 A3001 RMK A01 T03270158  RH  036%=      5-min Rain = 0
KSP2 251945Z 15008KT 33/16 A3001 RMK A01 T03260156  RH  036%=      5-min Rain = 0
KSP2 251946Z 18008G13KT 33/16 A30 RMK A01 T03260158  RH  036%=      5-min Rain = 0
KSP2 251947Z 20012KT 33/16 A30 RMK A01 T03270161  RH  037%=      5-min Rain = 0
KSP2 251948Z 20009G14KT 33/16 A30 RMK A01 T03280156  RH  036%=      5-min Rain = 0
KSP2 251949Z 19007KT 33/16 A30 RMK A01 T03280160  RH  036%=      5-min Rain = 0
KSP2 251950Z 17008KT 33/16 A30 RMK A01 T03280164  RH  037%=      5-min Rain = 0
KSP2 251951Z 18008KT 33/16 A30 RMK A01 T03280159  RH  036%=      5-min Rain = 0
KSP2 251952Z 18008KT 33/17 A30 RMK A01 T03290168  RH  038%=      5-min Rain = 0
KSP2 251953Z 15011KT 33/17 A30 RMK A01 T03310165  RH  037%=      5-min Rain = 0
KSP2 251954Z 14009KT 33/16 A30 RMK A01 T03310162  RH  036%=      5-min Rain = 0
KSP2 251955Z 14008KT 33/17 A30 RMK A01 T03300165  RH  037%=      5-min Rain = 0
KSP2 251956Z 15008KT 33/16 A30 RMK A01 T03300161  RH  036%=      5-min Rain = 0
KSP2 251957Z 17006KT 33/16 A30 RMK A01 T03280162  RH  037%=      5-min Rain = 0
KSP2 251958Z 19006KT 33/16 A30 RMK A01 T03280162  RH  037%=      5-min Rain = 0
KSP2 251959Z 17009KT 33/16 A30 RMK A01 T03290164  RH  037%=      5-min Rain = 0
KSP2 252000Z 16012KT 33/15 A30 RMK A01 T03310154  RH  035%=      5-min Rain = 0
KSP2 252001Z 14010KT 33/15 A30 RMK A01 T03310151  RH  034%=      5-min Rain = 0
KSP2 252002Z 13012KT 33/15 A30 RMK A01 T03310151  RH  034%=      5-min Rain = 0
KSP2 252003Z 13009KT 33/15 A30 RMK A01 T03300150  RH  034%=      5-min Rain = 0
KSP2 252004Z 13012KT 33/15 A30 RMK A01 T03290153  RH  035%=      5-min Rain = 0
KSP2 252005Z 14011KT 33/15 A30 RMK A01 T03290152  RH  034%=      5-min Rain = 0
KSP2 252006Z 12010KT 33/15 A30 RMK A01 T03300153  RH  035%=      5-min Rain = 0
KSP2 252007Z 12008KT 33/16 A30 RMK A01 T03300161  RH  036%=      5-min Rain = 0
KSP2 252008Z 14009KT 33/16 A30 RMK A01 T03330164  RH  037%=      5-min Rain = 0
KSP2 252009Z 14010KT 33/16 A30 RMK A01 T03340160  RH  035%=      5-min Rain = 0
KSP2 252010Z 17013KT 33/16 A30 RMK A01 T03340156  RH  034%=      5-min Rain = 0
KSP2 252011Z 19011KT 33/15 A30 RMK A01 T03330150  RH  033%=      5-min Rain = 0
KSP2 252012Z 18009KT 33/15 A30 RMK A01 T03340150  RH  033%=      5-min Rain = 0
KSP2 252013Z 17011KT 33/15 A30 RMK A01 T03340153  RH  034%=      5-min Rain = 0
KSP2 252014Z 16008G13KT 33/15 A30 RMK A01 T03340145  RH  032%=      5-min Rain = 0
KSP2 252015Z 17006KT 33/14 A30 RMK A01 T03340140  RH  031%=      5-min Rain = 0
KSP2 252016Z 19011KT 33/15 A30 RMK A01 T03340149  RH  033%=      5-min Rain = 0
KSP2 252017Z 18009KT 33/14 A2999 RMK A01 T03340138  RH  031%=      5-min Rain = 0
KSP2 252018Z 17008KT 33/14 A2999 RMK A01 T03340142  RH  031%=      5-min Rain = 0
KSP2 252019Z 17008KT 34/15 A2999 RMK A01 T03350148  RH  033%=      5-min Rain = 0
KSP2 252020Z 16008KT 34/15 A2999 RMK A01 T03360146  RH  032%=      5-min Rain = 0
KSP2 252021Z 17006KT 34/16 A2999 RMK A01 T03360155  RH  034%=      5-min Rain = 0
KSP2 252022Z 17009KT 34/15 A2999 RMK A01 T03380147  RH  032%=      5-min Rain = 0
KSP2 252023Z 17011G16KT 34/15 A2999 RMK A01 T03380148  RH  032%=      5-min Rain = 0
KSP2 252024Z 18012G17KT 34/14 A2999 RMK A01 T03390144  RH  031%=      5-min Rain = 0
KSP2 252025Z 17012KT 34/13 A2999 RMK A01 T03390133  RH  029%=      5-min Rain = 0
KSP2 252026Z 18009KT 34/13 A2999 RMK A01 T03360132  RH  029%=      5-min Rain = 0
KSP2 252027Z 19007KT 34/14 A2999 RMK A01 T03350137  RH  030%=      5-min Rain = 0
KSP2 252028Z 18012KT 34/14 A2999 RMK A01 T03350139  RH  031%=      5-min Rain = 0
KSP2 252029Z 19016KT 34/14 A2999 RMK A01 T03370136  RH  030%=      5-min Rain = 0
KSP2 252030Z 19013KT 34/13 A2999 RMK A01 T03370128  RH  028%=      5-min Rain = 0
KSP2 252031Z 20009G14KT 34/13 A2999 RMK A01 T03360130  RH  029%=      5-min Rain = 0
KSP2 252032Z 19011KT 34/14 A2999 RMK A01 T03370141  RH  031%=      5-min Rain = 0
KSP2 252033Z 18012KT 34/13 A2999 RMK A01 T03380133  RH  029%=      5-min Rain = 0
KSP2 252034Z 18009KT 34/13 A2999 RMK A01 T03380131  RH  029%=      5-min Rain = 0
KSP2 252035Z 18008KT 34/13 A2999 RMK A01 T03380131  RH  029%=      5-min Rain = 0
KSP2 252036Z 17012KT 34/13 A2999 RMK A01 T03380133  RH  029%=      5-min Rain = 0
KSP2 252037Z 17013KT 34/14 A2999 RMK A01 T03380140  RH  030%=      5-min Rain = 0
KSP2 252038Z 16012KT 34/14 A2999 RMK A01 T03380136  RH  030%=      5-min Rain = 0
KSP2 252039Z 16011KT 34/14 A2999 RMK A01 T03380136  RH  030%=      5-min Rain = 0
KSP2 252040Z 18012KT 34/14 A2999 RMK A01 T03370139  RH  030%=      5-min Rain = 0
KSP2 252041Z 18011KT 34/13 A2999 RMK A01 T03370132  RH  029%=      5-min Rain = 0
KSP2 252042Z 16010KT 34/13 A2999 RMK A01 T03350132  RH  029%=      5-min Rain = 0
KSP2 252043Z 17010KT 33/13 A2999 RMK A01 T03340133  RH  030%=      5-min Rain = 0
KSP2 252044Z 18010KT 33/14 A2998 RMK A01 T03330143  RH  032%=      5-min Rain = 0
KSP2 252045Z 17010G15KT 34/13 A2998 RMK A01 T03350133  RH  030%=      5-min Rain = 0
KSP2 252046Z 17010KT 34/14 A2998 RMK A01 T03360138  RH  030%=      5-min Rain = 0
KSP2 252047Z 16011G16KT 34/13 A2998 RMK A01 T03350132  RH  029%=      5-min Rain = 0
KSP2 252048Z 17011KT 33/13 A2998 RMK A01 T03320126  RH  029%=      5-min Rain = 0
KSP2 252049Z 17010KT 33/13 A2998 RMK A01 T03300127  RH  029%=      5-min Rain = 0
KSP2 252050Z 16012KT 33/14 A2998 RMK A01 T03290136  RH  031%=      5-min Rain = 0
KSP2 252051Z 17014KT 33/15 A2998 RMK A01 T03330153  RH  034%=      5-min Rain = 0
KSP2 252052Z 17011KT 34/15 A2998 RMK A01 T03360150  RH  033%=      5-min Rain = 0
KSP2 252053Z 17010KT 34/15 A2998 RMK A01 T03350153  RH  033%=      5-min Rain = 0
KSP2 252054Z 20008KT 34/15 A2998 RMK A01 T03360148  RH  032%=      5-min Rain = 0
KSP2 252055Z 17011KT 34/14 A2998 RMK A01 T03370143  RH  031%=      5-min Rain = 0
KSP2 252056Z 16012KT 34/15 A2998 RMK A01 T03370154  RH  033%=      5-min Rain = 0
KSP2 252057Z 17008KT 34/16 A2998 RMK A01 T03370155  RH  034%=      5-min Rain = 0
KSP2 252058Z 17011KT 34/16 A2998 RMK A01 T03370155  RH  034%=      5-min Rain = 0
KSP2 252059Z 15010KT 34/15 A2998 RMK A01 T03380153  RH  033%=      5-min Rain = 0
KSP2 252100Z 15011KT 34/15 A2998 RMK A01 T03380154  RH  033%=      5-min Rain = 0
KSP2 252101Z 16012KT 34/15 A2998 RMK A01 T03360154  RH  034%=      5-min Rain = 0
KSP2 252102Z 16015KT 34/15 A2998 RMK A01 T03370153  RH  033%=      5-min Rain = 0
KSP2 252103Z 16013KT 34/15 A2998 RMK A01 T03370152  RH  033%=      5-min Rain = 0
KSP2 252104Z 16014KT 34/15 A2998 RMK A01 T03360152  RH  033%=      5-min Rain = 0
KSP2 252105Z 16010KT 34/16 A2998 RMK A01 T03350155  RH  034%=      5-min Rain = 0
KSP2 252106Z 16012G18KT 34/15 A2998 RMK A01 T03350152  RH  033%=      5-min Rain = 0
KSP2 252107Z 16011G17KT 34/15 A2997 RMK A01 T03350152  RH  033%=      5-min Rain = 0
KSP2 252108Z 15014KT 34/15 A2997 RMK A01 T03350150  RH  033%=      5-min Rain = 0
KSP2 252109Z 16013KT 34/15 A2997 RMK A01 T03350151  RH  033%=      5-min Rain = 0
KSP2 252110Z 16014KT 34/15 A2997 RMK A01 T03350151  RH  033%=      5-min Rain = 0
KSP2 252111Z 16014KT 34/15 A2997 RMK A01 T03350153  RH  034%=      5-min Rain = 0
KSP2 252112Z 16011KT 33/15 A2997 RMK A01 T03340149  RH  033%=      5-min Rain = 0
KSP2 252113Z 16012KT 33/16 A2997 RMK A01 T03330158  RH  035%=      5-min Rain = 0
KSP2 252114Z 17017KT 33/16 A2997 RMK A01 T03340155  RH  034%=      5-min Rain = 0
KSP2 252115Z 17015KT 33/15 A2997 RMK A01 T03330151  RH  034%=      5-min Rain = 0
KSP2 252116Z 17015KT 33/15 A2997 RMK A01 T03320154  RH  034%=      5-min Rain = 0
KSP2 252117Z 17015KT 33/15 A2997 RMK A01 T03310151  RH  034%=      5-min Rain = 0
KSP2 252118Z 17013KT 33/15 A2997 RMK A01 T03300154  RH  035%=      5-min Rain = 0
KSP2 252119Z 17012KT 33/16 A2997 RMK A01 T03310156  RH  035%=      5-min Rain = 0
KSP2 252120Z 18012KT 33/16 A2997 RMK A01 T03310157  RH  035%=      5-min Rain = 0
KSP2 252121Z 17012G17KT 33/15 A2997 RMK A01 T03320152  RH  034%=      5-min Rain = 0
KSP2 252122Z 16011G17KT 33/16 A2997 RMK A01 T03320156  RH  035%=      5-min Rain = 0
KSP2 252123Z 16018G23KT 33/15 A2997 RMK A01 T03330154  RH  034%=      5-min Rain = 0
KSP2 252124Z 16016KT 33/15 A2997 RMK A01 T03320151  RH  034%=      5-min Rain = 0
KSP2 252125Z 16014G19KT 33/16 A2997 RMK A01 T03310155  RH  035%=      5-min Rain = 0
KSP2 252126Z 16015KT 33/15 A2997 RMK A01 T03310153  RH  034%=      5-min Rain = 0
KSP2 252127Z 16013G19KT 33/16 A2997 RMK A01 T03310156  RH  035%=      5-min Rain = 0
KSP2 252128Z 14016KT 33/15 A2997 RMK A01 T03310151  RH  034%=      5-min Rain = 0
KSP2 252129Z 14012KT 33/15 A2996 RMK A01 T03300154  RH  035%=      5-min Rain = 0
KSP2 252130Z 15013KT 33/15 A2996 RMK A01 T03290152  RH  035%=      5-min Rain = 0
KSP2 252131Z 15011KT 33/15 A2996 RMK A01 T03290150  RH  034%=      5-min Rain = 0
KSP2 252132Z 15013KT 33/15 A2996 RMK A01 T03300151  RH  034%=      5-min Rain = 0
KSP2 252133Z 17016KT 33/15 A2996 RMK A01 T03310153  RH  034%=      5-min Rain = 0
KSP2 252134Z 17016KT 33/15 A2996 RMK A01 T03310151  RH  034%=      5-min Rain = 0
KSP2 252135Z 16011KT 33/16 A2996 RMK A01 T03310157  RH  035%=      5-min Rain = 0
KSP2 252136Z 14014KT 33/15 A2996 RMK A01 T03310154  RH  035%=      5-min Rain = 0
KSP2 252137Z 16015KT 33/15 A2996 RMK A01 T03310150  RH  034%=      5-min Rain = 0
KSP2 252138Z 16014KT 33/15 A2996 RMK A01 T03300149  RH  034%=      5-min Rain = 0
KSP2 252139Z 15015KT 33/15 A2996 RMK A01 T03280150  RH  034%=      5-min Rain = 0
KSP2 252140Z 17019KT 33/15 A2996 RMK A01 T03280149  RH  034%=      5-min Rain = 0
KSP2 252141Z 17016KT 33/15 A2996 RMK A01 T03290150  RH  034%=      5-min Rain = 0
KSP2 252142Z 17015KT 33/15 A2996 RMK A01 T03280148  RH  034%=      5-min Rain = 0
KSP2 252143Z 17012KT 33/15 A2996 RMK A01 T03280149  RH  034%=      5-min Rain = 0
KSP2 252144Z 17014KT 33/15 A2996 RMK A01 T03270150  RH  034%=      5-min Rain = 0
KSP2 252145Z 16019KT 33/15 A2995 RMK A01 T03280150  RH  034%=      5-min Rain = 0
KSP2 252146Z 16018KT 33/15 A2995 RMK A01 T03280149  RH  034%=      5-min Rain = 0
KSP2 252147Z 15017KT 33/15 A2995 RMK A01 T03280147  RH  033%=      5-min Rain = 0
KSP2 252148Z 17016KT 33/15 A2995 RMK A01 T03290149  RH  034%=      5-min Rain = 0
KSP2 252149Z 16014KT 33/16 A2995 RMK A01 T03290155  RH  035%=      5-min Rain = 0
KSP2 252150Z 16017KT 33/15 A2995 RMK A01 T03300148  RH  033%=      5-min Rain = 0
KSP2 252151Z 15015KT 33/15 A2996 RMK A01 T03290149  RH  034%=      5-min Rain = 0
KSP2 252152Z 16013KT 33/15 A2995 RMK A01 T03270149  RH  034%=      5-min Rain = 0
KSP2 252153Z 14017G23KT 33/15 A2995 RMK A01 T03250153  RH  036%=      5-min Rain = 0
KSP2 252154Z 15019KT 33/15 A2995 RMK A01 T03250151  RH  035%=      5-min Rain = 0
KSP2 252155Z 16020KT 33/15 A2995 RMK A01 T03260153  RH  035%=      5-min Rain = 0
KSP2 252156Z 15017KT 33/15 A2995 RMK A01 T03260152  RH  035%=      5-min Rain = 0
KSP2 252157Z 16015KT 33/16 A2995 RMK A01 T03260155  RH  036%=      5-min Rain = 0
KSP2 252158Z 16018KT 33/16 A2995 RMK A01 T03270156  RH  036%=      5-min Rain = 0
KSP2 252159Z 16011KT 33/16 A2995 RMK A01 T03290161  RH  037%=      5-min Rain = 0
KSP2 252200Z 17013G18KT 33/16 A2995 RMK A01 T03310161  RH  036%=      5-min Rain = 0
KSP2 252201Z 17014G21KT 33/16 A2995 RMK A01 T03320156  RH  035%=      5-min Rain = 0
KSP2 252202Z 17016KT 33/16 A2995 RMK A01 T03320155  RH  035%=      5-min Rain = 0
KSP2 252203Z 16015G20KT 33/16 A2995 RMK A01 T03320155  RH  035%=      5-min Rain = 0
KSP2 252204Z 15016KT 33/16 A2995 RMK A01 T03310158  RH  035%=      5-min Rain = 0
KSP2 252205Z 16016G23KT 33/16 A2995 RMK A01 T03300160  RH  036%=      5-min Rain = 0
KSP2 252206Z 16018G24KT 33/15 A2995 RMK A01 T03280153  RH  035%=      5-min Rain = 0
KSP2 252207Z 16018KT 33/15 A2995 RMK A01 T03270152  RH  035%=      5-min Rain = 0
KSP2 252208Z 15020KT 33/15 A2995 RMK A01 T03260150  RH  035%=      5-min Rain = 0
KSP2 252209Z 16019G25KT 33/15 A2995 RMK A01 T03260150  RH  035%=      5-min Rain = 0
KSP2 252210Z 17018KT 33/15 A2995 RMK A01 T03260153  RH  035%=      5-min Rain = 0
KSP2 252211Z 16013KT 33/15 A2995 RMK A01 T03260153  RH  035%=      5-min Rain = 0
KSP2 252212Z 15015KT 33/15 A2995 RMK A01 T03260154  RH  036%=      5-min Rain = 0
KSP2 252213Z 15015KT 33/15 A2995 RMK A01 T03260152  RH  035%=      5-min Rain = 0
KSP2 252214Z 17011KT 33/15 A2995 RMK A01 T03260154  RH  036%=      5-min Rain = 0
KSP2 252215Z 17015KT 33/16 A2995 RMK A01 T03260156  RH  036%=      5-min Rain = 0
KSP2 252216Z 16019KT 33/15 A2995 RMK A01 T03270152  RH  035%=      5-min Rain = 0
KSP2 252217Z 17017KT 33/15 A2995 RMK A01 T03270151  RH  035%=      5-min Rain = 0
KSP2 252218Z 16016KT 33/15 A2995 RMK A01 T03260152  RH  035%=      5-min Rain = 0
KSP2 252219Z 16015KT 33/15 A2995 RMK A01 T03250152  RH  035%=      5-min Rain = 0
KSP2 252220Z 16013KT 33/15 A2995 RMK A01 T03250151  RH  035%=      5-min Rain = 0
KSP2 252221Z 16018KT 32/15 A2995 RMK A01 T03240154  RH  036%=      5-min Rain = 0
KSP2 252222Z 16018KT 32/15 A2995 RMK A01 T03240150  RH  035%=      5-min Rain = 0
KSP2 252223Z 17014KT 32/15 A2995 RMK A01 T03230149  RH  035%=      5-min Rain = 0
KSP2 252224Z 16014KT 32/15 A2995 RMK A01 T03220152  RH  036%=      5-min Rain = 0
KSP2 252225Z 15012KT 32/16 A2995 RMK A01 T03220157  RH  037%=      5-min Rain = 0
KSP2 252226Z 16017G22KT 32/16 A2995 RMK A01 T03240156  RH  036%=      5-min Rain = 0
KSP2 252227Z 17018KT 33/15 A2995 RMK A01 T03250152  RH  035%=      5-min Rain = 0
KSP2 252228Z 17014G19KT 33/15 A2995 RMK A01 T03250154  RH  036%=      5-min Rain = 0
KSP2 252229Z 17016KT 33/16 A2995 RMK A01 T03250157  RH  036%=      5-min Rain = 0
KSP2 252230Z 17018KT 33/15 A2995 RMK A01 T03260153  RH  035%=      5-min Rain = 0
KSP2 252231Z 17016KT 33/15 A2995 RMK A01 T03250153  RH  036%=      5-min Rain = 0
KSP2 252232Z 16013KT 32/15 A2995 RMK A01 T03230152  RH  036%=      5-min Rain = 0
KSP2 252233Z 16015KT 32/15 A2995 RMK A01 T03230151  RH  035%=      5-min Rain = 0
KSP2 252234Z 15016KT 32/15 A2995 RMK A01 T03230151  RH  035%=      5-min Rain = 0
KSP2 252235Z 15019KT 32/16 A2995 RMK A01 T03240161  RH  038%=      5-min Rain = 0
KSP2 252236Z 15018KT 32/16 A2995 RMK A01 T03240158  RH  037%=      5-min Rain = 0
KSP2 252237Z 14016G21KT 32/16 A2995 RMK A01 T03230160  RH  038%=      5-min Rain = 0
KSP2 252238Z 14015KT 32/16 A2995 RMK A01 T03220163  RH  039%=      5-min Rain = 0
KSP2 252239Z 15015KT 32/16 A2995 RMK A01 T03220163  RH  039%=      5-min Rain = 0
KSP2 252240Z 15015KT 32/16 A2995 RMK A01 T03210164  RH  039%=      5-min Rain = 0
KSP2 252241Z 17015KT 32/17 A2995 RMK A01 T03210165  RH  039%=      5-min Rain = 0
KSP2 252242Z 16013KT 32/16 A2995 RMK A01 T03220164  RH  039%=      5-min Rain = 0
KSP2 252243Z 16015KT 32/16 A2995 RMK A01 T03220164  RH  039%=      5-min Rain = 0
KSP2 252244Z 16017KT 32/16 A2995 RMK A01 T03220162  RH  038%=      5-min Rain = 0
KSP2 252245Z 15016KT 32/16 A2995 RMK A01 T03220157  RH  037%=      5-min Rain = 0
KSP2 252246Z 14015KT 32/16 A2995 RMK A01 T03230156  RH  037%=      5-min Rain = 0
KSP2 252247Z 15016G21KT 32/16 A2995 RMK A01 T03230157  RH  037%=      5-min Rain = 0
KSP2 252248Z 15017KT 32/16 A2995 RMK A01 T03230158  RH  037%=      5-min Rain = 0
KSP2 252249Z 15014KT 32/16 A2995 RMK A01 T03230159  RH  037%=      5-min Rain = 0
KSP2 252250Z 16013KT 32/17 A2995 RMK A01 T03220166  RH  039%=      5-min Rain = 0
KSP2 252251Z 17017KT 32/17 A2995 RMK A01 T03230165  RH  039%=      5-min Rain = 0
KSP2 252252Z 16018KT 32/16 A2995 RMK A01 T03230162  RH  038%=      5-min Rain = 0
KSP2 252253Z 17017KT 32/16 A2995 RMK A01 T03230162  RH  038%=      5-min Rain = 0
KSP2 252254Z 16017KT 32/16 A2995 RMK A01 T03220159  RH  038%=      5-min Rain = 0
KSP2 252255Z 16016KT 32/16 A2995 RMK A01 T03210161  RH  038%=      5-min Rain = 0
KSP2 252256Z 17018KT 32/16 A2995 RMK A01 T03200162  RH  039%=      5-min Rain = 0
KSP2 252257Z 17015KT 32/17 A2995 RMK A01 T03210165  RH  039%=      5-min Rain = 0
KSP2 252258Z 17017KT 32/16 A2995 RMK A01 T03210162  RH  039%=      5-min Rain = 0
KSP2 252259Z 18015KT 32/16 A2995 RMK A01 T03200158  RH  038%=      5-min Rain = 0
KSP2 252300Z 16015G21KT 32/17 A2995 RMK A01 T03200165  RH  039%=      5-min Rain = 0
KSP2 252301Z 15016KT 32/17 A2995 RMK A01 T03210170  RH  040%=      5-min Rain = 0
KSP2 252302Z 14020KT 32/16 A2994 RMK A01 T03210164  RH  039%=      5-min Rain = 0
KSP2 252303Z 15017KT 32/17 A2994 RMK A01 T03200167  RH  040%=      5-min Rain = 0
KSP2 252304Z 16018G23KT 32/17 A2994 RMK A01 T03190167  RH  040%=      5-min Rain = 0
KSP2 252305Z 16018KT 32/17 A2994 RMK A01 T03190165  RH  040%=      5-min Rain = 0
KSP2 252306Z 15018KT 32/17 A2994 RMK A01 T03200170  RH  041%=      5-min Rain = 0
KSP2 252307Z 16015KT 32/17 A2994 RMK A01 T03170171  RH  042%=      5-min Rain = 0
KSP2 252308Z 15019G24KT 32/17 A2994 RMK A01 T03150171  RH  042%=      5-min Rain = 0
KSP2 252309Z 15021KT 31/16 A2994 RMK A01 T03140164  RH  040%=      5-min Rain = 0
KSP2 252310Z 15017KT 31/16 A2994 RMK A01 T03140164  RH  040%=      5-min Rain = 0
KSP2 252311Z 16016KT 32/17 A2994 RMK A01 T03150165  RH  040%=      5-min Rain = 0
KSP2 252312Z 16017KT 32/16 A2994 RMK A01 T03160164  RH  040%=      5-min Rain = 0
KSP2 252313Z 15014KT 32/17 A2994 RMK A01 T03170168  RH  041%=      5-min Rain = 0
KSP2 252314Z 14016KT 32/17 A2994 RMK A01 T03170169  RH  041%=      5-min Rain = 0
KSP2 252315Z 14019KT 32/17 A2994 RMK A01 T03170169  RH  041%=      5-min Rain = 0
KSP2 252316Z 15017KT 32/17 A2994 RMK A01 T03160168  RH  041%=      5-min Rain = 0
KSP2 252317Z 15016KT 32/17 A2994 RMK A01 T03160169  RH  041%=      5-min Rain = 0
KSP2 252318Z 15018G24KT 32/17 A2994 RMK A01 T03170169  RH  041%=      5-min Rain = 0
KSP2 252319Z 15019KT 32/17 A2994 RMK A01 T03170167  RH  040%=      5-min Rain = 0
KSP2 252320Z 15014G19KT 32/17 A2994 RMK A01 T03170170  RH  042%=      5-min Rain = 0
KSP2 252321Z 15021KT 32/17 A2994 RMK A01 T03160168  RH  041%=      5-min Rain = 0
KSP2 252322Z 15018KT 32/17 A2994 RMK A01 T03160167  RH  041%=      5-min Rain = 0
KSP2 252323Z 15018KT 32/17 A2994 RMK A01 T03150167  RH  041%=      5-min Rain = 0
KSP2 252324Z 15018KT 32/17 A2994 RMK A01 T03150167  RH  041%=      5-min Rain = 0
KSP2 252325Z 15023KT 32/17 A2994 RMK A01 T03150167  RH  041%=      5-min Rain = 0
KSP2 252326Z 15020KT 31/17 A2994 RMK A01 T03140167  RH  041%=      5-min Rain = 0
KSP2 252327Z 14015KT 31/17 A2994 RMK A01 T03130169  RH  042%=      5-min Rain = 0
KSP2 252328Z 13018KT 31/17 A2994 RMK A01 T03130170  RH  042%=      5-min Rain = 0
KSP2 252329Z 13015G20KT 31/17 A2994 RMK A01 T03130170  RH  042%=      5-min Rain = 0
KSP2 252330Z 14019KT 31/17 A2994 RMK A01 T03130170  RH  042%=      5-min Rain = 0
KSP2 252331Z 14022KT 31/17 A2994 RMK A01 T03140166  RH  041%=      5-min Rain = 0
KSP2 252332Z 14020KT 31/17 A2994 RMK A01 T03130166  RH  041%=      5-min Rain = 0
KSP2 252333Z 14018KT 31/17 A2995 RMK A01 T03120165  RH  041%=      5-min Rain = 0
KSP2 252334Z 15019KT 31/17 A2995 RMK A01 T03120166  RH  042%=      5-min Rain = 0
KSP2 252335Z 14019G24KT 31/17 A2995 RMK A01 T03120168  RH  042%=      5-min Rain = 0
KSP2 252336Z 14019KT 31/17 A2995 RMK A01 T03110167  RH  042%=      5-min Rain = 0
KSP2 252337Z 15018KT 31/17 A2995 RMK A01 T03100169  RH  043%=      5-min Rain = 0
KSP2 252338Z 14017KT 31/17 A2995 RMK A01 T03080171  RH  044%=      5-min Rain = 0
KSP2 252339Z 14015KT 31/17 A2995 RMK A01 T03070171  RH  044%=      5-min Rain = 0
KSP2 252340Z 15015G20KT 31/17 A2995 RMK A01 T03050171  RH  044%=      5-min Rain = 0
KSP2 252341Z 15017KT 30/17 A2995 RMK A01 T03040168  RH  044%=      5-min Rain = 0
KSP2 252342Z 15018G23KT 30/16 A2995 RMK A01 T03030163  RH  043%=      5-min Rain = 0
KSP2 252343Z 14020KT 30/16 A2995 RMK A01 T03020161  RH  043%=      5-min Rain = 0
KSP2 252344Z 14020KT 30/16 A2995 RMK A01 T03010161  RH  043%=      5-min Rain = 0
KSP2 252345Z 15017KT 30/16 A2995 RMK A01 T03010164  RH  044%=      5-min Rain = 0
KSP2 252346Z 14015G20KT 30/17 A2995 RMK A01 T03000167  RH  045%=      5-min Rain = 0
KSP2 252347Z 14017KT 30/17 A2995 RMK A01 T02990169  RH  046%=      5-min Rain = 0
KSP2 252348Z 14019KT 30/17 A2995 RMK A01 T02980170  RH  046%=      5-min Rain = 0
KSP2 252349Z 13019KT 30/17 A2995 RMK A01 T02980168  RH  046%=      5-min Rain = 0
KSP2 252350Z 13017KT 30/17 A2995 RMK A01 T02960168  RH  046%=      5-min Rain = 0
KSP2 252351Z 13016KT 30/17 A2995 RMK A01 T02950169  RH  047%=      5-min Rain = 0
KSP2 252352Z 14017KT 29/17 A2996 RMK A01 T02940169  RH  047%=      5-min Rain = 0
KSP2 252353Z 14016G22KT 29/17 A2996 RMK A01 T02940169  RH  047%=      5-min Rain = 0
KSP2 252354Z 15015KT 29/17 A2996 RMK A01 T02940169  RH  047%=      5-min Rain = 0
KSP2 252355Z 14013G18KT 29/17 A2996 RMK A01 T02940168  RH  047%=      5-min Rain = 0
KSP2 252356Z 14016KT 30/17 A2996 RMK A01 T02950170  RH  047%=      5-min Rain = 0
KSP2 252357Z 14017KT 29/17 A2996 RMK A01 T02940166  RH  046%=      5-min Rain = 0
KSP2 252358Z 13014KT 30/17 A2996 RMK A01 T02950167  RH  046%=      5-min Rain = 0
KSP2 252359Z 13014KT 30/17 A2997 RMK A01 T02950169  RH  047%=      5-min Rain = 0
KSP2 260000Z 13015KT 29/17 A2997 RMK A01 T02940169  RH  047%=      5-min Rain = 0
KSP2 260001Z 14017KT 29/17 A2997 RMK A01 T02940169  RH  047%=      5-min Rain = 0
KSP2 260002Z 14014KT 29/17 A2997 RMK A01 T02940168  RH  047%=      5-min Rain = 0
KSP2 260003Z 14016KT 29/17 A2997 RMK A01 T02940166  RH  046%=      5-min Rain = 0
KSP2 260004Z 14016G21KT 29/16 A2997 RMK A01 T02940160  RH  044%=      5-min Rain = 0
KSP2 260005Z 14014KT 29/16 A2997 RMK A01 T02940158  RH  044%=      5-min Rain = 0
KSP2 260006Z 14014KT 30/16 A2997 RMK A01 T02950159  RH  044%=      5-min Rain = 0
KSP2 260007Z 13014G20KT 29/16 A2997 RMK A01 T02940162  RH  045%=      5-min Rain = 0
KSP2 260008Z 13018KT 29/17 A2997 RMK A01 T02930165  RH  046%=      5-min Rain = 0
KSP2 260009Z 13014G19KT 29/17 A2996 RMK A01 T02930167  RH  046%=      5-min Rain = 0
KSP2 260010Z 13014G19KT 29/17 A2996 RMK A01 T02920168  RH  047%=      5-min Rain = 0
KSP2 260011Z 13014KT 29/17 A2996 RMK A01 T02910168  RH  047%=      5-min Rain = 0
KSP2 260012Z 12017KT 29/17 A2996 RMK A01 T02900168  RH  048%=      5-min Rain = 0
KSP2 260013Z 12015KT 29/17 A2996 RMK A01 T02900168  RH  048%=      5-min Rain = 0
KSP2 260014Z 12016KT 29/17 A2995 RMK A01 T02890168  RH  048%=      5-min Rain = 0
KSP2 260015Z 13015G20KT 29/17 A2995 RMK A01 T02890169  RH  048%=      5-min Rain = 0
KSP2 260016Z 13016KT 29/17 A2995 RMK A01 T02890169  RH  048%=      5-min Rain = 0
KSP2 260017Z 13017KT 29/17 A2995 RMK A01 T02890169  RH  048%=      5-min Rain = 0
KSP2 260018Z 13018G24KT 29/17 A2995 RMK A01 T02890167  RH  048%=      5-min Rain = 0
KSP2 260019Z 13017G22KT 29/17 A2995 RMK A01 T02890167  RH  048%=      5-min Rain = 0
KSP2 260020Z 13017KT 29/17 A2995 RMK A01 T02890167  RH  048%=      5-min Rain = 0
KSP2 260021Z 13018G24KT 29/17 A2995 RMK A01 T02890168  RH  048%=      5-min Rain = 0
KSP2 260022Z 13021KT 29/17 A2996 RMK A01 T02890167  RH  048%=      5-min Rain = 0
KSP2 260023Z 12016G22KT 29/17 A2996 RMK A01 T02890168  RH  048%=      5-min Rain = 0
KSP2 260024Z 12017G24KT 29/17 A2996 RMK A01 T02890167  RH  048%=      5-min Rain = 0
KSP2 260025Z 13018KT 29/17 A2996 RMK A01 T02890168  RH  048%=      5-min Rain = 0
KSP2 260026Z 13016G21KT 29/17 A2997 RMK A01 T02890168  RH  048%=      5-min Rain = 0
KSP2 260027Z 12017KT 29/17 A2997 RMK A01 T02880169  RH  048%=      5-min Rain = 0
KSP2 260028Z 12014KT 29/17 A2997 RMK A01 T02880168  RH  048%=      5-min Rain = 0
KSP2 260029Z 11014KT 29/17 A2997 RMK A01 T02870169  RH  049%=      5-min Rain = 0
KSP2 260030Z 11013KT 29/17 A2997 RMK A01 T02870168  RH  049%=      5-min Rain = 0
KSP2 260031Z 10012KT 29/17 A2998 RMK A01 T02860170  RH  049%=      5-min Rain = 0
KSP2 260032Z 10012KT 28/17 A2998 RMK A01 T02840169  RH  050%=      5-min Rain = 0
KSP2 260033Z 10013KT 28/17 A2998 RMK A01 T02830168  RH  050%=      5-min Rain = 0
KSP2 260034Z 09012G18KT 28/17 A2998 RMK A01 T02830168  RH  050%=      5-min Rain = 0
KSP2 260035Z 09015KT 28/17 A2999 RMK A01 T02830168  RH  050%=      5-min Rain = 0
KSP2 260036Z 09014KT 28/17 A2999 RMK A01 T02820167  RH  049%=      5-min Rain = 0
KSP2 260037Z 08011KT 28/17 A30 RMK A01 T02830167  RH  049%=      5-min Rain = 0
KSP2 260038Z 07014KT 28/17 A30 RMK A01 T02830168  RH  050%=      5-min Rain = 0
KSP2 260039Z 06011KT 28/17 A3001 RMK A01 T02830168  RH  050%=      5-min Rain = 0
KSP2 260040Z 05014KT 28/17 A3002 RMK A01 T02830168  RH  050%=      5-min Rain = 0
KSP2 260041Z 02020G28KT 28/16 A3002 RMK A01 T02810156  RH  047%=      5-min Rain = 0
KSP2 260042Z 04020G27KT 27/14 A3002 RMK A01 T02680141  RH  046%=      5-min Rain = 0
KSP2 260043Z 04019KT 26/14 A3002 RMK A01 T02550138  RH  048%=      5-min Rain = 0
KSP2 260044Z 03019KT 25/14 A3003 RMK A01 T02480137  RH  050%=      5-min Rain = 0
KSP2 260045Z 04013KT 24/14 A3003 RMK A01 T02440136  RH  051%=      5-min Rain = 0
KSP2 260046Z 04014G20KT 24/14 A3003 RMK A01 T02410137  RH  052%=      5-min Rain = 0
KSP2 260047Z 03015G23KT 24/14 A3003 RMK A01 T02400139  RH  053%=      5-min Rain = 0
KSP2 260048Z 03019KT 24/14 A3003 RMK A01 T02400138  RH  053%=      5-min Rain = 0
KSP2 260049Z 03019G29KT 24/14 A3003 RMK A01 T02400137  RH  053%=      5-min Rain = 0
KSP2 260050Z 03023G32KT 24/13 A3003 RMK A01 T02390133  RH  051%=      5-min Rain = 0
KSP2 260051Z 03024KT 24/13 A3003 RMK A01 T02370127  RH  050%=      5-min Rain = 0
KSP2 260052Z 02023G28KT 24/13 A3003 RMK A01 T02350126  RH  050%=      5-min Rain = 0
KSP2 260053Z 03020G25KT 23/13 A3003 RMK A01 T02340125  RH  050%=      5-min Rain = 0
KSP2 260054Z 03025G30KT 23/12 A3003 RMK A01 T02320124  RH  050%=      5-min Rain = 0
KSP2 260055Z 04020G27KT 23/12 A3003 RMK A01 T02310122  RH  050%=      5-min Rain = 0
KSP2 260056Z 03018G23KT 23/12 A3003 RMK A01 T02290123  RH  051%=      5-min Rain = 0
KSP2 260057Z 03020G25KT 23/12 A3003 RMK A01 T02290123  RH  051%=      5-min Rain = 0
KSP2 260058Z 03021KT 23/12 A3002 RMK A01 T02280122  RH  051%=      5-min Rain = 0
KSP2 260059Z 04016G22KT 23/12 A3002 RMK A01 T02270123  RH  052%=      5-min Rain = 0
KSP2 260100Z 04019G24KT 23/12 A3002 RMK A01 T02260122  RH  052%=      5-min Rain = 0
KSP2 260101Z 04018G23KT 23/12 A3002 RMK A01 T02250122  RH  052%=      5-min Rain = 0
KSP2 260102Z 04014G20KT 23/12 A3002 RMK A01 T02250122  RH  052%=      5-min Rain = 0
KSP2 260103Z 04015KT 22/12 A3002 RMK A01 T02240122  RH  052%=      5-min Rain = 0
KSP2 260104Z 05015KT 22/12 A3002 RMK A01 T02240122  RH  052%=      5-min Rain = 0
KSP2 260105Z 04014G19KT 22/12 A3002 RMK A01 T02240122  RH  052%=      5-min Rain = 0
KSP2 260106Z 04016KT 22/12 A3003 RMK A01 T02240122  RH  052%=      5-min Rain = 0
KSP2 260107Z 05013KT 23/12 A3003 RMK A01 T02250123  RH  052%=      5-min Rain = 0
KSP2 260108Z 04014KT 23/12 A3003 RMK A01 T02250123  RH  053%=      5-min Rain = 0
KSP2 260109Z 04013G18KT 23/12 A3004 RMK A01 T02250123  RH  053%=      5-min Rain = 0
KSP2 260110Z 05014KT 23/12 A3004 RMK A01 T02250124  RH  053%=      5-min Rain = 0
KSP2 260111Z 05015G20KT 23/12 A3004 RMK A01 T02250124  RH  053%=      5-min Rain = 0
KSP2 260112Z 05015G20KT 23/12 A3005 RMK A01 T02250124  RH  053%=      5-min Rain = 0
KSP2 260113Z 05015G20KT 23/13 A3005 RMK A01 T02250125  RH  053%=      5-min Rain = 0
KSP2 260114Z 05016KT 23/13 A3004 RMK A01 T02250125  RH  053%=      5-min Rain = 0
KSP2 260115Z 05016KT 22/12 A3004 RMK A01 T02240124  RH  053%=      5-min Rain = 0
KSP2 260116Z 05014G20KT 22/13 A3004 RMK A01 T02230125  RH  054%=      5-min Rain = 0
KSP2 260117Z 05012KT 22/13 A3004 RMK A01 T02220125  RH  054%=      5-min Rain = 0
KSP2 260118Z 05013KT 22/13 A3003 RMK A01 T02210125  RH  054%=      5-min Rain = 0
KSP2 260119Z 05014KT 22/13 A3003 RMK A01 T02210125  RH  055%=      5-min Rain = 0
KSP2 260120Z 05012KT 22/13 A3003 RMK A01 T02200125  RH  055%=      5-min Rain = 0
KSP2 260121Z 05015G20KT 22/12 A3004 RMK A01 T02190124  RH  055%=      5-min Rain = 0
KSP2 260122Z 05012KT 22/13 A3004 RMK A01 T02200125  RH  055%=      5-min Rain = 0
KSP2 260123Z 05016KT 22/13 A3004 RMK A01 T02200125  RH  055%=      5-min Rain = 0
KSP2 260124Z 05014KT 22/13 A3004 RMK A01 T02190125  RH  055%=      5-min Rain = 0
KSP2 260125Z 05015G21KT 22/13 A3004 RMK A01 T02190125  RH  055%=      5-min Rain = 0
KSP2 260126Z 05012KT 22/13 A3004 RMK A01 T02190125  RH  055%=      5-min Rain = 0
KSP2 260127Z 06013KT 22/13 A3004 RMK A01 T02180126  RH  056%=      5-min Rain = 0
KSP2 260128Z 05011KT 22/13 A3004 RMK A01 T02180126  RH  056%=      5-min Rain = 0
KSP2 260129Z 06013KT 22/13 A3004 RMK A01 T02180126  RH  056%=      5-min Rain = 0
KSP2 260130Z 06013G18KT 22/13 A3004 RMK A01 T02170126  RH  056%=      5-min Rain = 0
KSP2 260131Z 05015KT 22/13 A3004 RMK A01 T02170125  RH  056%=      5-min Rain = 0
KSP2 260132Z 06015G21KT 22/13 A3005 RMK A01 T02170125  RH  056%=      5-min Rain = 0
KSP2 260133Z 06016KT 22/13 A3005 RMK A01 T02180125  RH  056%=      5-min Rain = 0
KSP2 260134Z 06013KT 22/13 A3005 RMK A01 T02180126  RH  056%=      5-min Rain = 0
KSP2 260135Z 06016KT 22/13 A3005 RMK A01 T02170126  RH  056%=      5-min Rain = 0
KSP2 260136Z 06014KT 22/13 A3005 RMK A01 T02170126  RH  056%=      5-min Rain = 0
KSP2 260137Z 07010KT 22/13 A3005 RMK A01 T02160126  RH  057%=      5-min Rain = 0
KSP2 260138Z 07013KT 22/13 A3005 RMK A01 T02150126  RH  057%=      5-min Rain = 0
KSP2 260139Z 07014KT 21/13 A3005 RMK A01 T02140126  RH  057%=      5-min Rain = 0
KSP2 260140Z 07012KT 21/13 A3006 RMK A01 T02130126  RH  057%=      5-min Rain = 0
KSP2 260141Z 07011KT 21/13 A3006 RMK A01 T02140127  RH  058%=      5-min Rain = 0
KSP2 260142Z 08012KT 21/13 A3006 RMK A01 T02130127  RH  058%=      5-min Rain = 0
KSP2 260143Z 07013KT 21/13 A3006 RMK A01 T02130127  RH  058%=      5-min Rain = 0
KSP2 260144Z 07011G16KT 21/13 A3006 RMK A01 T02130127  RH  058%=      5-min Rain = 0
KSP2 260145Z 07014KT 21/13 A3006 RMK A01 T02130127  RH  058%=      5-min Rain = 0
KSP2 260146Z 07009KT 21/13 A3006 RMK A01 T02130127  RH  058%=      5-min Rain = 0
KSP2 260147Z 07011KT 21/13 A3006 RMK A01 T02130127  RH  058%=      5-min Rain = 0
KSP2 260148Z 06012KT 21/13 A3006 RMK A01 T02140127  RH  058%=      5-min Rain = 0
KSP2 260149Z 05012KT 21/13 A3006 RMK A01 T02130127  RH  058%=      5-min Rain = 0
KSP2 260150Z 05011KT 21/13 A3007 RMK A01 T02140127  RH  058%=      5-min Rain = 0
KSP2 260151Z 05007KT 21/13 A3007 RMK A01 T02140127  RH  058%=      5-min Rain = 0
KSP2 260152Z 05009KT 21/13 A3007 RMK A01 T02140128  RH  058%=      5-min Rain = 0
KSP2 260153Z 05011KT 21/13 A3007 RMK A01 T02140127  RH  057%=      5-min Rain = 0
KSP2 260154Z 05010KT 21/13 A3007 RMK A01 T02140127  RH  057%=      5-min Rain = 0
KSP2 260155Z 05012KT 22/13 A3007 RMK A01 T02150127  RH  057%=      5-min Rain = 0
KSP2 260156Z 06010KT 22/13 A3007 RMK A01 T02150127  RH  057%=      5-min Rain = 0
KSP2 260157Z 06013KT 22/13 A3006 RMK A01 T02150127  RH  057%=      5-min Rain = 0
KSP2 260158Z 05013KT 22/13 A3006 RMK A01 T02160128  RH  057%=      5-min Rain = 0
KSP2 260159Z 05014KT 22/13 A3006 RMK A01 T02160128  RH  057%=      5-min Rain = 0
KSP2 260200Z 05014KT 22/13 A3006 RMK A01 T02160128  RH  057%=      5-min Rain = 0
KSP2 260201Z 05016KT 22/13 A3006 RMK A01 T02160129  RH  058%=      5-min Rain = 0
KSP2 260202Z 05011KT 22/13 A3006 RMK A01 T02160129  RH  058%=      5-min Rain = 0
KSP2 260203Z 04011KT 22/13 A3006 RMK A01 T02160130  RH  058%=      5-min Rain = 0
KSP2 260204Z 05009KT 22/13 A3007 RMK A01 T02160131  RH  058%=      5-min Rain = 0
KSP2 260205Z 05009G14KT 22/13 A3007 RMK A01 T02150131  RH  059%=      5-min Rain = 0
KSP2 260206Z 04009KT 22/13 A3008 RMK A01 T02150131  RH  059%=      5-min Rain = 0
KSP2 260207Z 04009KT 22/13 A3009 RMK A01 T02150131  RH  059%=      5-min Rain = 0
KSP2 260208Z 03009KT 22/13 A3009 RMK A01 T02150131  RH  059%=      5-min Rain = 0
KSP2 260209Z 03009KT 22/13 A301 RMK A01 T02150131  RH  059%=      5-min Rain = 0
KSP2 260210Z 02009KT 22/13 A301 RMK A01 T02150131  RH  059%=      5-min Rain = 0
KSP2 260211Z 00009KT 22/13 A3011 RMK A01 T02150131  RH  059%=      5-min Rain = 0
KSP2 260212Z 35007KT 22/13 A3011 RMK A01 T02160132  RH  059%=      5-min Rain = 0
KSP2 260213Z 34008KT 22/13 A3012 RMK A01 T02150132  RH  059%=      5-min Rain = 0
KSP2 260214Z 33008KT 22/13 A3012 RMK A01 T02160133  RH  059%=      5-min Rain = 0
KSP2 260215Z 33008KT 22/13 A3012 RMK A01 T02150132  RH  059%=      5-min Rain = 0
KSP2 260216Z 32008KT 22/13 A3012 RMK A01 T02160132  RH  059%=      5-min Rain = 0
KSP2 260217Z 31010G18KT 22/13 A3013 RMK A01 T02170133  RH  059%=      5-min Rain = 0
KSP2 260218Z 31014KT 22/14 A3013 RMK A01 T02150137  RH  061%=      5-min Rain = 0
KSP2 260219Z 32012KT 21/14 A3013 RMK A01 T02110139  RH  063%=      5-min Rain = 0
KSP2 260220Z 32011KT 21/14 A3013 RMK A01 T02070139  RH  065%=      5-min Rain = 0
KSP2 260221Z 32007KT 21/14 A3013 RMK A01 T02050140  RH  066%=      5-min Rain = 0
KSP2 260222Z 32008KT 20/14 A3013 RMK A01 T02040141  RH  067%=      5-min Rain = 0
KSP2 260223Z 34007KT 20/14 A3013 RMK A01 T02040141  RH  067%=      5-min Rain = 0
KSP2 260224Z 34007KT 20/14 A3013 RMK A01 T02030140  RH  067%=      5-min Rain = 0
KSP2 260225Z 35008KT 20/14 A3013 RMK A01 T02030140  RH  067%=      5-min Rain = 0
KSP2 260226Z 01007KT 20/14 A3013 RMK A01 T02030140  RH  067%=      5-min Rain = 0
KSP2 260227Z 01007KT 20/14 A3012 RMK A01 T02030141  RH  067%=      5-min Rain = 0
KSP2 260228Z 01007KT 20/14 A3012 RMK A01 T02030140  RH  067%=      5-min Rain = 0
KSP2 260229Z 02008KT 20/14 A3012 RMK A01 T02030141  RH  067%=      5-min Rain = 0
KSP2 260230Z 03008KT 20/14 A3012 RMK A01 T02040140  RH  067%=      5-min Rain = 0
KSP2 260231Z 04009KT 20/14 A3012 RMK A01 T02040140  RH  066%=      5-min Rain = 0
KSP2 260232Z 05011KT 21/14 A3011 RMK A01 T02060138  RH  065%=      5-min Rain = 0
KSP2 260233Z 02013G18KT 21/13 A3011 RMK A01 T02110133  RH  061%=      5-min Rain = 0
KSP2 260234Z 03013KT 22/13 A3011 RMK A01 T02170132  RH  058%=      5-min Rain = 0
KSP2 260235Z 04013KT 22/13 A3011 RMK A01 T02200131  RH  057%=      5-min Rain = 0
KSP2 260236Z 04013KT 22/13 A3011 RMK A01 T02220134  RH  058%=      5-min Rain = 0
KSP2 260237Z 03015KT 22/14 A3011 RMK A01 T02200135  RH  058%=      5-min Rain = 0
KSP2 260238Z 02014G21KT 22/13 A3011 RMK A01 T02210132  RH  057%=      5-min Rain = 0
KSP2 260239Z 02019KT 23/13 A301 RMK A01 T02260130  RH  055%=      5-min Rain = 0
KSP2 260240Z 03019KT 23/13 A3011 RMK A01 T02320129  RH  052%=      5-min Rain = 0
KSP2 260241Z 03018KT 24/13 A3011 RMK A01 T02360129  RH  051%=      5-min Rain = 0
KSP2 260242Z 02017KT 24/13 A3011 RMK A01 T02390129  RH  050%=      5-min Rain = 0
KSP2 260243Z 03016KT 24/13 A3011 RMK A01 T02390129  RH  050%=      5-min Rain = 0
KSP2 260244Z 03014G19KT 24/13 A3011 RMK A01 T02390130  RH  050%=      5-min Rain = 0
KSP2 260245Z 03016G22KT 24/13 A3011 RMK A01 T02380130  RH  051%=      5-min Rain = 0
KSP2 260246Z 02017G25KT 24/13 A3011 RMK A01 T02380129  RH  051%=      5-min Rain = 0
KSP2 260247Z 02017KT 24/13 A3011 RMK A01 T02380128  RH  050%=      5-min Rain = 0
KSP2 260248Z 03017KT 24/13 A3011 RMK A01 T02380129  RH  050%=      5-min Rain = 0
KSP2 260249Z 03015KT 24/13 A3012 RMK A01 T02370131  RH  051%=      5-min Rain = 0
KSP2 260250Z 03014KT 24/13 A3012 RMK A01 T02350132  RH  052%=      5-min Rain = 0
KSP2 260251Z 03016KT 23/13 A3012 RMK A01 T02340132  RH  053%=      5-min Rain = 0
KSP2 260252Z 04017KT 23/13 A3012 RMK A01 T02340133  RH  053%=      5-min Rain = 0
KSP2 260253Z 04016KT 24/13 A3012 RMK A01 T02350134  RH  053%=      5-min Rain = 0
KSP2 260254Z 04015KT 23/14 A3012 RMK A01 T02340137  RH  054%=      5-min Rain = 0
KSP2 260255Z 04015G20KT 23/14 A3012 RMK A01 T02330138  RH  055%=      5-min Rain = 0
KSP2 260256Z 04016KT 23/14 A3012 RMK A01 T02320137  RH  055%=      5-min Rain = 0
KSP2 260257Z 04015KT 23/14 A3012 RMK A01 T02310137  RH  055%=      5-min Rain = 0
KSP2 260258Z 05013KT 23/14 A3012 RMK A01 T02310138  RH  056%=      5-min Rain = 0
KSP2 260259Z 05013KT 23/14 A3012 RMK A01 T02300141  RH  057%=      5-min Rain = 0
KSP2 260300Z 06013KT 23/14 A3012 RMK A01 T02280142  RH  058%=      5-min Rain = 0
KSP2 260301Z 05013KT 23/14 A3012 RMK A01 T02260142  RH  059%=      5-min Rain = 0
KSP2 260302Z 06015KT 23/14 A3012 RMK A01 T02250143  RH  060%=      5-min Rain = 0
KSP2 260303Z 06014KT 22/14 A3012 RMK A01 T02240143  RH  060%=      5-min Rain = 0
KSP2 260304Z 07016KT 22/14 A3012 RMK A01 T02230142  RH  060%=      5-min Rain = 0
KSP2 260305Z 07015KT 22/14 A3012 RMK A01 T02230141  RH  060%=      5-min Rain = 0
KSP2 260306Z 07014KT 22/14 A3012 RMK A01 T02230142  RH  060%=      5-min Rain = 0
KSP2 260307Z 07014KT 22/14 A3012 RMK A01 T02220142  RH  060%=      5-min Rain = 0
KSP2 260308Z 08014KT 22/14 A3012 RMK A01 T02210142  RH  061%=      5-min Rain = 0
KSP2 260309Z 08015KT 22/14 A3012 RMK A01 T02210141  RH  061%=      5-min Rain = 0
KSP2 260310Z 09014KT 22/14 A3012 RMK A01 T02200140  RH  060%=      5-min Rain = 0
KSP2 260311Z 09014KT 22/14 A3012 RMK A01 T02200140  RH  060%=      5-min Rain = 0
KSP2 260312Z 10015KT 22/14 A3012 RMK A01 T02200142  RH  061%=      5-min Rain = 0
KSP2 260313Z 09017G22KT 22/14 A3011 RMK A01 T02180141  RH  062%=      5-min Rain = 0
KSP2 260314Z 09017KT 22/14 A3011 RMK A01 T02190141  RH  061%=      5-min Rain = 0
KSP2 260315Z 10015KT 22/14 A3011 RMK A01 T02190144  RH  062%=      5-min Rain = 0
KSP2 260316Z 10016KT 22/14 A3011 RMK A01 T02170143  RH  063%=      5-min Rain = 0
KSP2 260317Z 11014KT 22/14 A3011 RMK A01 T02170143  RH  063%=      5-min Rain = 0
KSP2 260318Z 12012KT 22/15 A3011 RMK A01 T02170145  RH  064%=      5-min Rain = 0
KSP2 260319Z 14009KT 22/15 A3011 RMK A01 T02170148  RH  065%=      5-min Rain = 0.01
KSP2 260320Z 14010KT 21/15 A3011 RMK A01 T02140149  RH  066%=      5-min Rain = 0
KSP2 260321Z 13007KT 21/15 A3011 RMK A01 T02120150  RH  068%=      5-min Rain = 0
KSP2 260322Z 13007KT 21/15 A3011 RMK A01 T02100149  RH  068%=      5-min Rain = 0
KSP2 260323Z 14008KT 21/15 A3011 RMK A01 T02090150  RH  069%=      5-min Rain = 0
KSP2 260324Z 13012KT 21/15 A3011 RMK A01 T02070149  RH  070%=      5-min Rain = 0
KSP2 260325Z 12014KT 21/14 A3011 RMK A01 T02060144  RH  067%=      5-min Rain = 0
KSP2 260326Z 12013KT 21/14 A301 RMK A01 T02060144  RH  068%=      5-min Rain = 0
KSP2 260327Z 11012KT 21/14 A301 RMK A01 T02050140  RH  066%=      5-min Rain = 0
KSP2 260328Z 11010KT 21/14 A301 RMK A01 T02060143  RH  067%=      5-min Rain = 0
KSP2 260329Z 09008KT 21/14 A301 RMK A01 T02050144  RH  068%=      5-min Rain = 0
KSP2 260330Z 08008KT 20/14 A3009 RMK A01 T02040141  RH  067%=      5-min Rain = 0
KSP2 260331Z 08011KT 20/14 A3009 RMK A01 T02040140  RH  067%=      5-min Rain = 0
KSP2 260332Z 08013KT 20/14 A3009 RMK A01 T02040136  RH  065%=      5-min Rain = 0
KSP2 260333Z 08013KT 21/14 A3009 RMK A01 T02050135  RH  064%=      5-min Rain = 0
KSP2 260334Z 08012KT 21/13 A3009 RMK A01 T02070131  RH  062%=      5-min Rain = 0
KSP2 260335Z 08012KT 21/13 A3009 RMK A01 T02090132  RH  061%=      5-min Rain = 0
KSP2 260336Z 09011KT 21/13 A3009 RMK A01 T02100134  RH  062%=      5-min Rain = 0
KSP2 260337Z 09012KT 21/13 A3008 RMK A01 T02090133  RH  062%=      5-min Rain = 0
KSP2 260338Z 10010KT 21/13 A3008 RMK A01 T02090132  RH  061%=      5-min Rain = 0
KSP2 260339Z 11011KT 21/14 A3008 RMK A01 T02080136  RH  063%=      5-min Rain = 0
KSP2 260340Z 11013KT 21/14 A3008 RMK A01 T02060138  RH  065%=      5-min Rain = 0
KSP2 260341Z 11012KT 20/14 A3008 RMK A01 T02040138  RH  066%=      5-min Rain = 0
KSP2 260342Z 11013KT 20/14 A3008 RMK A01 T02030137  RH  066%=      5-min Rain = 0
KSP2 260343Z 10015KT 20/13 A3008 RMK A01 T02030133  RH  064%=      5-min Rain = 0
KSP2 260344Z 11014KT 21/13 A3008 RMK A01 T02050130  RH  062%=      5-min Rain = 0
KSP2 260345Z 11016KT 21/13 A3008 RMK A01 T02070132  RH  062%=      5-min Rain = 0
KSP2 260346Z 11016KT 21/13 A3008 RMK A01 T02080133  RH  062%=      5-min Rain = 0
KSP2 260347Z 10016KT 21/13 A3008 RMK A01 T02080133  RH  062%=      5-min Rain = 0
KSP2 260348Z 11016KT 21/13 A3008 RMK A01 T02090131  RH  061%=      5-min Rain = 0
KSP2 260349Z 10017KT 21/13 A3007 RMK A01 T02110127  RH  058%=      5-min Rain = 0
KSP2 260350Z 10015KT 21/13 A3007 RMK A01 T02130127  RH  058%=      5-min Rain = 0
KSP2 260351Z 10018KT 21/13 A3007 RMK A01 T02140125  RH  057%=      5-min Rain = 0
KSP2 260352Z 10018G23KT 22/12 A3007 RMK A01 T02150123  RH  056%=      5-min Rain = 0
KSP2 260353Z 10017KT 22/12 A3007 RMK A01 T02170123  RH  055%=      5-min Rain = 0
KSP2 260354Z 10018KT 22/12 A3006 RMK A01 T02180122  RH  054%=      5-min Rain = 0
KSP2 260355Z 10018KT 22/12 A3006 RMK A01 T02190121  RH  054%=      5-min Rain = 0
KSP2 260356Z 10016KT 22/12 A3006 RMK A01 T02200123  RH  054%=      5-min Rain = 0
KSP2 260357Z 09015KT 22/12 A3006 RMK A01 T02200123  RH  054%=      5-min Rain = 0
KSP2 260358Z 09014KT 22/12 A3006 RMK A01 T02200123  RH  054%=      5-min Rain = 0
KSP2 260359Z 09014KT 22/12 A3006 RMK A01 T02200122  RH  054%=      5-min Rain = 0
KSP2 260400Z 09015KT 22/12 A3006 RMK A01 T02200120  RH  053%=      5-min Rain = 0
KSP2 260401Z 10012G17KT 22/12 A3006 RMK A01 T02210122  RH  053%=      5-min Rain = 0
KSP2 260402Z 10014G19KT 22/12 A3006 RMK A01 T02210122  RH  053%=      5-min Rain = 0
KSP2 260403Z 10016KT 22/12 A3006 RMK A01 T02210120  RH  053%=      5-min Rain = 0
KSP2 260404Z 10017KT 22/12 A3006 RMK A01 T02210117  RH  052%=      5-min Rain = 0
KSP2 260405Z 10016KT 22/12 A3007 RMK A01 T02230117  RH  051%=      5-min Rain = 0
KSP2 260406Z 10016G21KT 22/12 A3007 RMK A01 T02230117  RH  051%=      5-min Rain = 0
KSP2 260407Z 10016G21KT 23/12 A3007 RMK A01 T02250115  RH  050%=      5-min Rain = 0
KSP2 260408Z 10017KT 23/12 A3007 RMK A01 T02260116  RH  050%=      5-min Rain = 0
KSP2 260409Z 10015KT 23/12 A3007 RMK A01 T02260115  RH  049%=      5-min Rain = 0
KSP2 260410Z 10014KT 23/11 A3007 RMK A01 T02270114  RH  049%=      5-min Rain = 0
KSP2 260411Z 10015KT 23/11 A3007 RMK A01 T02280113  RH  048%=      5-min Rain = 0
KSP2 260412Z 10014KT 23/11 A3008 RMK A01 T02280112  RH  048%=      5-min Rain = 0
KSP2 260413Z 10014KT 23/11 A3008 RMK A01 T02290112  RH  048%=      5-min Rain = 0
KSP2 260414Z 10013KT 23/11 A3008 RMK A01 T02280114  RH  048%=      5-min Rain = 0
KSP2 260415Z 10013G18KT 23/11 A3008 RMK A01 T02280114  RH  048%=      5-min Rain = 0
KSP2 260416Z 11013KT 23/12 A3008 RMK A01 T02270115  RH  049%=      5-min Rain = 0
KSP2 260417Z 10015KT 23/11 A3009 RMK A01 T02270114  RH  049%=      5-min Rain = 0
KSP2 260418Z 10014KT 23/11 A3009 RMK A01 T02260114  RH  049%=      5-min Rain = 0
KSP2 260419Z 10013KT 23/11 A3009 RMK A01 T02270112  RH  048%=      5-min Rain = 0
KSP2 260420Z 10014KT 23/11 A3009 RMK A01 T02270112  RH  048%=      5-min Rain = 0
KSP2 260421Z 10013KT 23/11 A3009 RMK A01 T02270111  RH  048%=      5-min Rain = 0
KSP2 260422Z 10011KT 23/11 A3009 RMK A01 T02270112  RH  048%=      5-min Rain = 0
KSP2 260423Z 10013KT 23/11 A3009 RMK A01 T02270112  RH  048%=      5-min Rain = 0
KSP2 260424Z 10010KT 23/11 A3009 RMK A01 T02270113  RH  048%=      5-min Rain = 0
KSP2 260425Z 10011KT 23/11 A3009 RMK A01 T02260113  RH  049%=      5-min Rain = 0
KSP2 260426Z 09010KT 23/11 A3009 RMK A01 T02250113  RH  049%=      5-min Rain = 0
KSP2 260427Z 09008KT 22/11 A3009 RMK A01 T02230114  RH  050%=      5-min Rain = 0
KSP2 260428Z 10009G14KT 22/11 A3009 RMK A01 T02220114  RH  050%=      5-min Rain = 0
KSP2 260429Z 09009KT 22/11 A3009 RMK A01 T02220112  RH  050%=      5-min Rain = 0
KSP2 260430Z 10008KT 22/11 A3009 RMK A01 T02220114  RH  050%=      5-min Rain = 0
KSP2 260431Z 10009KT 22/11 A301 RMK A01 T02220114  RH  050%=      5-min Rain = 0
KSP2 260432Z 10008KT 22/11 A301 RMK A01 T02220114  RH  050%=      5-min Rain = 0
KSP2 260433Z 10009KT 22/11 A301 RMK A01 T02220114  RH  050%=      5-min Rain = 0
KSP2 260434Z 10009KT 22/12 A301 RMK A01 T02220115  RH  051%=      5-min Rain = 0
KSP2 260435Z 10009KT 22/12 A301 RMK A01 T02210115  RH  051%=      5-min Rain = 0
KSP2 260436Z 10009KT 22/12 A301 RMK A01 T02200115  RH  051%=      5-min Rain = 0
KSP2 260437Z 10008KT 22/12 A301 RMK A01 T02200116  RH  052%=      5-min Rain = 0
KSP2 260438Z 11009KT 22/12 A301 RMK A01 T02190116  RH  052%=      5-min Rain = 0
KSP2 260439Z 10009KT 22/12 A301 RMK A01 T02190117  RH  052%=      5-min Rain = 0
KSP2 260440Z 10007KT 22/12 A301 RMK A01 T02180116  RH  052%=      5-min Rain = 0
KSP2 260441Z 10008KT 22/12 A301 RMK A01 T02180117  RH  053%=      5-min Rain = 0
KSP2 260442Z 10008KT 22/12 A301 RMK A01 T02170117  RH  053%=      5-min Rain = 0
KSP2 260443Z 10008KT 22/12 A3011 RMK A01 T02170117  RH  053%=      5-min Rain = 0
KSP2 260444Z 10008KT 22/12 A3011 RMK A01 T02170118  RH  053%=      5-min Rain = 0
KSP2 260445Z 10007KT 22/12 A3011 RMK A01 T02170118  RH  053%=      5-min Rain = 0
KSP2 260446Z 10007KT 22/12 A3011 RMK A01 T02160119  RH  054%=      5-min Rain = 0
KSP2 260447Z 10007KT 22/12 A3011 RMK A01 T02150119  RH  054%=      5-min Rain = 0
KSP2 260448Z 10006KT 21/12 A3011 RMK A01 T02140119  RH  055%=      5-min Rain = 0
KSP2 260449Z 10006KT 21/12 A3011 RMK A01 T02130120  RH  055%=      5-min Rain = 0
KSP2 260450Z 10006KT 21/12 A3011 RMK A01 T02120120  RH  056%=      5-min Rain = 0
KSP2 260451Z 10006KT 21/12 A3011 RMK A01 T02110120  RH  056%=      5-min Rain = 0
KSP2 260452Z 10006KT 21/12 A3011 RMK A01 T02090119  RH  056%=      5-min Rain = 0
KSP2 260453Z 10007KT 21/12 A3011 RMK A01 T02090119  RH  056%=      5-min Rain = 0
KSP2 260454Z 10007KT 21/12 A3011 RMK A01 T02090119  RH  056%=      5-min Rain = 0
KSP2 260455Z 10007KT 21/12 A3011 RMK A01 T02090119  RH  056%=      5-min Rain = 0
KSP2 260456Z 10007KT 21/12 A3011 RMK A01 T02100119  RH  056%=      5-min Rain = 0
KSP2 260457Z 10008KT 21/12 A3011 RMK A01 T02090118  RH  056%=      5-min Rain = 0
KSP2 260458Z 10007KT 21/12 A3011 RMK A01 T02100119  RH  056%=      5-min Rain = 0
KSP2 260459Z 10008KT 21/12 A3011 RMK A01 T02100118  RH  056%=      5-min Rain = 0

Page generated in 0.0726 seconds.